Dengler, Marcus (2026): Master tracks in different resolutions of METEOR cruise M217/1, Las Palmas - Walvis Bay, 2026-02-16 - 2026-03-07 [dataset]. GEOMAR - Helmholtz Centre for Ocean Research Kiel, PANGAEA, https://doi.pangaea.de/10.1594/PANGAEA.996835 (DOI registration in progress)
Always quote citation above when using data! You can download the citation in several formats below.
Published: 2026-08-24
Abstract:
Raw data acquired by position sensors on board RV METEOR during expedition M217/1 were processed to receive a validated master track which can be used as reference of further expedition data. During M217/1 the motion reference unit Kongsberg SeaTex AS MRU-5 combined with Kongsberg SeaTex AS Seapath 320 and two SAAB R6 DGPS receiver were used as navigation sensors. Data were downloaded from Insightics Marine DSHIP Extraction (https://dship.o2a-data.de/) with a resolution of 1 sec. Processing and evaluation of the data is outlined in the data processing report. Processed data are provided as a master track with 1 sec resolution derived from the position sensors' data selected by priority and a generalized track with a reduced set of the most significant positions of the master track.
Other version:
Dengler, Marcus (2026): Master track of METEOR cruise M217/1 in 1 sec resolution (zipped, 67 MB) [dataset]. GEOMAR - Helmholtz Centre for Ocean Research Kiel, PANGAEA, https://doi.pangaea.de/10.1594/PANGAEA.996836
Data processing report:
Further details:
Project(s):
AI BaseCamp - Helmholtz DataHub Earth & Environment (AI_BaseCamp)
DAM Marine Data - Research Vessels (DAM_ResearchVessels)
Funding:
Bundesministerium für
Forschung, Technologie und Raumfahrt (BMFTR), grant/award no. 03F1001E: Auf- und Ausbau Dateninfrastruktur und -management für Daten aus dem Betrieb deutscher Forschungsschiffe; Vorhaben: Bathymetrie-, Sedimentecholot-, Seismik- sowie weitere Unterwegs- und Forschungsmissionsdaten
Coverage:
Median Latitude: 0.384716 * Median Longitude: -4.055168 * South-bound Latitude: -22.954835 * West-bound Longitude: -20.772231 * North-bound Latitude: 28.144619 * East-bound Longitude: 14.500684
Date/Time Start: 2026-02-16T20:40:01 * Date/Time End: 2026-03-07T07:59:50
Event(s):
M217/1-track * Latitude Start: 28.144615 * Longitude Start: -15.427661 * Latitude End: -22.954833 * Longitude End: 14.486069 * Date/Time Start: 2026-02-16T20:20:01 * Date/Time End: 2026-03-07T07:59:50 * Campaign: M217/1 (BOCABENO) * Basis: Meteor (1986) * Method/Device: Underway cruise track measurements (CT) * Comment: Las Palmas - Walvis Bay
Comment:
This dataset contains the master track in 10 min resolution, for other resolutions please see "Other version" references.
Parameter(s):
License:
Creative Commons Attribution 4.0 International (CC-BY-4.0)
Status:
Curation Level: Enhanced curation (CurationLevelC)
Size:
5322 data points
Data
| 1 Date/Time | 2 Latitude | 3 Longitude | 4 Speed [kn] | 5 Course [deg] |
|---|---|---|---|---|
| 2026-02-16T20:40 | 28.14462 | -15.42766 | 0.002 | 19.5 |
| 2026-02-16T20:50 | 28.14346 | -15.42654 | 0.546 | 139.4 |
| 2026-02-16T21:00 | 28.14129 | -15.42176 | 1.708 | 117.2 |
| 2026-02-16T21:10 | 28.13173 | -15.41897 | 3.542 | 165.5 |
| 2026-02-16T21:20 | 28.11947 | -15.41202 | 4.924 | 153.3 |
| 2026-02-16T21:30 | 28.11316 | -15.38343 | 9.375 | 104.0 |
| 2026-02-16T21:40 | 28.11119 | -15.34723 | 11.538 | 93.5 |
| 2026-02-16T21:50 | 28.10565 | -15.31060 | 11.823 | 99.7 |
| 2026-02-16T22:00 | 28.09924 | -15.27416 | 11.820 | 101.2 |
| 2026-02-16T22:10 | 28.09290 | -15.23829 | 11.640 | 101.3 |
| 2026-02-16T22:20 | 28.08680 | -15.20261 | 11.562 | 100.9 |
| 2026-02-16T22:30 | 28.08081 | -15.16757 | 11.356 | 100.9 |
| 2026-02-16T22:40 | 28.07518 | -15.13209 | 11.472 | 100.2 |
| 2026-02-16T22:50 | 28.06940 | -15.09663 | 11.477 | 100.4 |
| 2026-02-16T23:00 | 28.06361 | -15.06082 | 11.584 | 100.3 |
| 2026-02-16T23:10 | 28.04707 | -15.04169 | 8.503 | 134.2 |
| 2026-02-16T23:20 | 28.01587 | -15.05397 | 11.860 | 199.2 |
| 2026-02-16T23:30 | 27.98453 | -15.06629 | 11.911 | 199.2 |
| 2026-02-16T23:40 | 27.95296 | -15.07873 | 11.998 | 199.3 |
| 2026-02-16T23:50 | 27.92146 | -15.09111 | 11.974 | 199.2 |
| 2026-02-17T00:00 | 27.89010 | -15.10344 | 11.920 | 199.3 |
| 2026-02-17T00:10 | 27.85887 | -15.11571 | 11.870 | 199.2 |
| 2026-02-17T00:20 | 27.82792 | -15.12788 | 11.765 | 199.3 |
| 2026-02-17T00:30 | 27.79718 | -15.13979 | 11.663 | 199.0 |
| 2026-02-17T00:40 | 27.76640 | -15.15204 | 11.716 | 199.5 |
| 2026-02-17T00:50 | 27.73522 | -15.16428 | 11.853 | 199.3 |
| 2026-02-17T01:00 | 27.70383 | -15.17663 | 11.934 | 199.3 |
| 2026-02-17T01:10 | 27.67199 | -15.18909 | 12.097 | 199.2 |
| 2026-02-17T01:20 | 27.64004 | -15.20163 | 12.143 | 199.3 |
| 2026-02-17T01:30 | 27.60763 | -15.21434 | 12.318 | 199.2 |
| 2026-02-17T01:40 | 27.58427 | -15.23813 | 11.319 | 222.2 |
| 2026-02-17T01:50 | 27.56983 | -15.27344 | 12.421 | 245.3 |
| 2026-02-17T02:00 | 27.55519 | -15.30916 | 12.571 | 245.3 |
| 2026-02-17T02:10 | 27.54054 | -15.34512 | 12.646 | 245.4 |
| 2026-02-17T02:20 | 27.52586 | -15.38095 | 12.611 | 245.3 |
| 2026-02-17T02:30 | 27.51108 | -15.41687 | 12.656 | 245.2 |
| 2026-02-17T02:40 | 27.49631 | -15.45304 | 12.728 | 245.4 |
| 2026-02-17T02:50 | 27.48137 | -15.48934 | 12.793 | 245.2 |
| 2026-02-17T03:00 | 27.46643 | -15.52581 | 12.847 | 245.3 |
| 2026-02-17T03:10 | 27.45462 | -15.56168 | 12.238 | 249.8 |
| 2026-02-17T03:20 | 27.44780 | -15.59497 | 10.931 | 257.1 |
| 2026-02-17T03:30 | 27.43204 | -15.63129 | 12.931 | 244.1 |
| 2026-02-17T03:40 | 27.41633 | -15.66736 | 12.850 | 244.0 |
| 2026-02-17T03:50 | 27.40064 | -15.70371 | 12.931 | 244.2 |
| 2026-02-17T04:00 | 27.38481 | -15.74000 | 12.935 | 244.0 |
| 2026-02-17T04:10 | 27.36808 | -15.77564 | 12.898 | 242.3 |
| 2026-02-17T04:20 | 27.35118 | -15.81121 | 12.906 | 242.0 |
| 2026-02-17T04:30 | 27.33441 | -15.84631 | 12.758 | 241.9 |
| 2026-02-17T04:40 | 27.31787 | -15.88115 | 12.642 | 242.0 |
| 2026-02-17T04:50 | 27.30123 | -15.91608 | 12.687 | 241.9 |
| 2026-02-17T05:00 | 27.28462 | -15.95114 | 12.722 | 242.1 |
| 2026-02-17T05:10 | 27.26804 | -15.98595 | 12.646 | 242.0 |
| 2026-02-17T05:20 | 27.25139 | -16.02110 | 12.756 | 242.1 |
| 2026-02-17T05:30 | 27.23175 | -16.05382 | 12.641 | 236.1 |
| 2026-02-17T05:40 | 27.20933 | -16.08472 | 12.764 | 230.9 |
| 2026-02-17T05:50 | 27.18687 | -16.11513 | 12.653 | 230.4 |
| 2026-02-17T06:00 | 27.16383 | -16.14462 | 12.565 | 228.9 |
| 2026-02-17T06:10 | 27.14103 | -16.17392 | 12.465 | 229.0 |
| 2026-02-17T06:20 | 27.11853 | -16.20296 | 12.333 | 229.1 |
| 2026-02-17T06:30 | 27.09612 | -16.23158 | 12.210 | 228.8 |
| 2026-02-17T06:40 | 27.07386 | -16.26015 | 12.163 | 229.0 |
| 2026-02-17T06:50 | 27.05189 | -16.28838 | 12.013 | 229.0 |
| 2026-02-17T07:00 | 27.03015 | -16.31624 | 11.872 | 228.9 |
| 2026-02-17T07:10 | 27.00852 | -16.34382 | 11.782 | 228.8 |
| 2026-02-17T07:20 | 26.98727 | -16.37135 | 11.678 | 229.2 |
| 2026-02-17T07:30 | 26.96496 | -16.39787 | 11.695 | 226.8 |
| 2026-02-17T07:40 | 26.94261 | -16.42470 | 11.777 | 227.1 |
| 2026-02-17T07:50 | 26.92003 | -16.45161 | 11.852 | 226.9 |
| 2026-02-17T08:00 | 26.89774 | -16.47923 | 11.953 | 228.0 |
| 2026-02-17T08:10 | 26.87536 | -16.50691 | 11.992 | 228.0 |
| 2026-02-17T08:20 | 26.85277 | -16.53497 | 12.132 | 228.1 |
| 2026-02-17T08:30 | 26.82983 | -16.56341 | 12.309 | 228.0 |
| 2026-02-17T08:40 | 26.80698 | -16.59185 | 12.289 | 228.2 |
| 2026-02-17T08:50 | 26.78386 | -16.62073 | 12.462 | 228.3 |
| 2026-02-17T09:00 | 26.76161 | -16.64924 | 12.164 | 229.0 |
| 2026-02-17T09:10 | 26.73936 | -16.67732 | 12.064 | 228.6 |
| 2026-02-17T09:20 | 26.71699 | -16.70519 | 12.043 | 228.2 |
| 2026-02-17T09:30 | 26.69456 | -16.73276 | 11.987 | 227.8 |
| 2026-02-17T09:40 | 26.67209 | -16.76044 | 12.022 | 227.9 |
| 2026-02-17T09:50 | 26.64948 | -16.78868 | 12.194 | 228.3 |
| 2026-02-17T10:00 | 26.62671 | -16.81673 | 12.186 | 227.9 |
| 2026-02-17T10:10 | 26.60424 | -16.84486 | 12.136 | 228.4 |
| 2026-02-17T10:20 | 26.58196 | -16.87319 | 12.141 | 228.8 |
| 2026-02-17T10:30 | 26.55959 | -16.90090 | 12.012 | 228.1 |
| 2026-02-17T10:40 | 26.53733 | -16.92838 | 11.934 | 228.0 |
| 2026-02-17T10:50 | 26.51714 | -16.95637 | 11.576 | 231.3 |
| 2026-02-17T11:00 | 26.49433 | -16.98363 | 12.017 | 227.1 |
| 2026-02-17T11:10 | 26.47153 | -17.01077 | 11.986 | 227.0 |
| 2026-02-17T11:20 | 26.44863 | -17.03814 | 12.067 | 227.1 |
| 2026-02-17T11:30 | 26.42563 | -17.06573 | 12.144 | 227.2 |
| 2026-02-17T11:40 | 26.40248 | -17.09338 | 12.195 | 227.1 |
| 2026-02-17T11:50 | 26.37980 | -17.12144 | 12.182 | 228.1 |
| 2026-02-17T12:00 | 26.35719 | -17.14940 | 12.145 | 228.1 |
| 2026-02-17T12:10 | 26.33430 | -17.17766 | 12.283 | 228.1 |
| 2026-02-17T12:20 | 26.31106 | -17.20642 | 12.486 | 228.1 |
| 2026-02-17T12:30 | 26.28813 | -17.23449 | 12.252 | 227.8 |
| 2026-02-17T12:40 | 26.26583 | -17.26198 | 11.958 | 228.0 |
| 2026-02-17T12:50 | 26.24403 | -17.28875 | 11.671 | 227.9 |
| 2026-02-17T13:00 | 26.22222 | -17.31557 | 11.684 | 228.0 |
| 2026-02-17T13:10 | 26.20034 | -17.34248 | 11.722 | 228.0 |
| 2026-02-17T13:20 | 26.17834 | -17.36975 | 11.841 | 228.2 |
| 2026-02-17T13:30 | 26.15634 | -17.39690 | 11.812 | 228.1 |
| 2026-02-17T13:40 | 26.13448 | -17.42380 | 11.721 | 228.0 |
| 2026-02-17T13:50 | 26.11288 | -17.45041 | 11.587 | 228.0 |
| 2026-02-17T14:00 | 26.09139 | -17.47687 | 11.529 | 228.0 |
| 2026-02-17T14:10 | 26.07019 | -17.50338 | 11.474 | 228.5 |
| 2026-02-17T14:20 | 26.05038 | -17.53127 | 11.495 | 231.8 |
| 2026-02-17T14:30 | 26.03046 | -17.55955 | 11.624 | 232.1 |
| 2026-02-17T14:40 | 26.01031 | -17.58804 | 11.726 | 231.9 |
| 2026-02-17T14:50 | 25.99000 | -17.61654 | 11.765 | 231.8 |
| 2026-02-17T15:00 | 25.96994 | -17.64505 | 11.714 | 232.1 |
| 2026-02-17T15:10 | 25.94979 | -17.67355 | 11.733 | 232.0 |
| 2026-02-17T15:20 | 25.92958 | -17.70218 | 11.781 | 232.0 |
| 2026-02-17T15:30 | 25.90931 | -17.73085 | 11.805 | 232.0 |
| 2026-02-17T15:40 | 25.88922 | -17.75926 | 11.703 | 232.0 |
| 2026-02-17T15:50 | 25.86921 | -17.78809 | 11.791 | 232.5 |
| 2026-02-17T16:00 | 25.84930 | -17.81723 | 11.852 | 232.9 |
| 2026-02-17T16:10 | 25.82942 | -17.84650 | 11.882 | 233.1 |
| 2026-02-17T16:20 | 25.80942 | -17.87578 | 11.909 | 233.0 |
| 2026-02-17T16:30 | 25.78953 | -17.90500 | 11.871 | 233.1 |
| 2026-02-17T16:40 | 25.76965 | -17.93413 | 11.847 | 233.0 |
| 2026-02-17T16:50 | 25.75836 | -17.94983 | 6.514 | 231.5 |
| 2026-02-17T17:00 | 25.74986 | -17.96278 | 5.197 | 234.1 |
| 2026-02-17T17:10 | 25.73178 | -17.98976 | 10.902 | 233.5 |
| 2026-02-17T17:20 | 25.71187 | -18.01950 | 12.017 | 233.6 |
| 2026-02-17T17:30 | 25.69226 | -18.04910 | 11.917 | 233.8 |
| 2026-02-17T17:40 | 25.67258 | -18.07911 | 12.040 | 234.1 |
| 2026-02-17T17:50 | 25.65271 | -18.10922 | 12.112 | 233.9 |
| 2026-02-17T18:00 | 25.63275 | -18.13931 | 12.124 | 233.8 |
| 2026-02-17T18:10 | 25.61309 | -18.16942 | 12.065 | 234.2 |
| 2026-02-17T18:20 | 25.59336 | -18.19959 | 12.099 | 234.2 |
| 2026-02-17T18:30 | 25.57346 | -18.22961 | 12.095 | 233.9 |
| 2026-02-17T18:40 | 25.55308 | -18.25906 | 12.055 | 232.7 |
| 2026-02-17T18:50 | 25.53185 | -18.28762 | 12.016 | 230.7 |
| 2026-02-17T19:00 | 25.51052 | -18.31563 | 11.901 | 230.0 |
| 2026-02-17T19:10 | 25.49008 | -18.34368 | 11.709 | 231.2 |
| 2026-02-17T19:20 | 25.47016 | -18.37245 | 11.783 | 232.7 |
| 2026-02-17T19:30 | 25.45049 | -18.40194 | 11.914 | 233.7 |
| 2026-02-17T19:40 | 25.43071 | -18.43183 | 12.049 | 233.9 |
| 2026-02-17T19:50 | 25.41098 | -18.46186 | 12.075 | 234.1 |
| 2026-02-17T20:00 | 25.39097 | -18.49227 | 12.233 | 234.1 |
| 2026-02-17T20:10 | 25.37093 | -18.52262 | 12.225 | 234.0 |
| 2026-02-17T20:20 | 25.35066 | -18.55266 | 12.195 | 233.4 |
| 2026-02-17T20:30 | 25.33020 | -18.58275 | 12.248 | 233.2 |
| 2026-02-17T20:40 | 25.30961 | -18.61271 | 12.248 | 232.9 |
| 2026-02-17T20:50 | 25.28900 | -18.64298 | 12.332 | 233.2 |
| 2026-02-17T21:00 | 25.26813 | -18.67342 | 12.433 | 233.0 |
| 2026-02-17T21:10 | 25.24729 | -18.70381 | 12.416 | 233.0 |
| 2026-02-17T21:20 | 25.22635 | -18.73438 | 12.486 | 233.0 |
| 2026-02-17T21:30 | 25.20552 | -18.76485 | 12.435 | 233.1 |
| 2026-02-17T21:40 | 25.18477 | -18.79530 | 12.416 | 233.2 |
| 2026-02-17T21:50 | 25.16391 | -18.82558 | 12.397 | 232.9 |
| 2026-02-17T22:00 | 25.14308 | -18.85603 | 12.436 | 233.1 |
| 2026-02-17T22:10 | 25.12217 | -18.88665 | 12.498 | 233.1 |
| 2026-02-17T22:20 | 25.10132 | -18.91691 | 12.393 | 232.9 |
| 2026-02-17T22:30 | 25.08058 | -18.94688 | 12.295 | 232.8 |
| 2026-02-17T22:40 | 25.06006 | -18.97704 | 12.300 | 233.2 |
| 2026-02-17T22:50 | 25.03942 | -19.00700 | 12.273 | 232.9 |
| 2026-02-17T23:00 | 25.01909 | -19.03663 | 12.122 | 233.0 |
| 2026-02-17T23:10 | 24.99880 | -19.06628 | 12.119 | 233.1 |
| 2026-02-17T23:20 | 24.97799 | -19.09571 | 12.178 | 232.2 |
| 2026-02-17T23:30 | 24.95727 | -19.12490 | 12.095 | 232.1 |
| 2026-02-17T23:40 | 24.93607 | -19.15438 | 12.278 | 231.7 |
| 2026-02-17T23:50 | 24.91486 | -19.18434 | 12.404 | 232.2 |
| 2026-02-18T00:00 | 24.89364 | -19.21384 | 12.291 | 231.8 |
| 2026-02-18T00:10 | 24.87258 | -19.24348 | 12.293 | 232.1 |
| 2026-02-18T00:20 | 24.85146 | -19.27306 | 12.291 | 231.9 |
| 2026-02-18T00:30 | 24.83037 | -19.30257 | 12.268 | 231.9 |
| 2026-02-18T00:40 | 24.80947 | -19.33204 | 12.217 | 232.2 |
| 2026-02-18T00:50 | 24.78862 | -19.36140 | 12.182 | 232.1 |
| 2026-02-18T01:00 | 24.76763 | -19.39062 | 12.174 | 231.8 |
| 2026-02-18T01:10 | 24.74688 | -19.41971 | 12.089 | 232.0 |
| 2026-02-18T01:20 | 24.72601 | -19.44882 | 12.122 | 231.9 |
| 2026-02-18T01:30 | 24.70525 | -19.47807 | 12.136 | 232.2 |
| 2026-02-18T01:40 | 24.68433 | -19.50752 | 12.226 | 232.1 |
| 2026-02-18T01:50 | 24.66322 | -19.53703 | 12.281 | 231.9 |
| 2026-02-18T02:00 | 24.64220 | -19.56650 | 12.254 | 232.0 |
| 2026-02-18T02:10 | 24.61924 | -19.59295 | 11.958 | 226.5 |
| 2026-02-18T02:20 | 24.58996 | -19.61113 | 12.076 | 209.6 |
| 2026-02-18T02:30 | 24.56054 | -19.62968 | 12.181 | 210.0 |
| 2026-02-18T02:40 | 24.54547 | -19.65126 | 8.906 | 232.7 |
| 2026-02-18T02:50 | 24.52469 | -19.67156 | 9.993 | 221.8 |
| 2026-02-18T03:00 | 24.49375 | -19.68872 | 12.447 | 206.9 |
| 2026-02-18T03:10 | 24.46262 | -19.70605 | 12.529 | 207.0 |
| 2026-02-18T03:20 | 24.43126 | -19.72347 | 12.619 | 207.0 |
| 2026-02-18T03:30 | 24.39997 | -19.74091 | 12.597 | 207.1 |
| 2026-02-18T03:40 | 24.36840 | -19.75843 | 12.702 | 206.9 |
| 2026-02-18T03:50 | 24.33684 | -19.77616 | 12.731 | 207.2 |
| 2026-02-18T04:00 | 24.30542 | -19.79349 | 12.626 | 206.8 |
| 2026-02-18T04:10 | 24.27371 | -19.81113 | 12.766 | 207.0 |
| 2026-02-18T04:20 | 24.24161 | -19.82906 | 12.933 | 207.1 |
| 2026-02-18T04:30 | 24.20967 | -19.84671 | 12.842 | 206.9 |
| 2026-02-18T04:40 | 24.17830 | -19.86466 | 12.708 | 207.7 |
| 2026-02-18T04:50 | 24.14800 | -19.88364 | 12.533 | 209.9 |
| 2026-02-18T05:00 | 24.11822 | -19.90241 | 12.340 | 210.0 |
| 2026-02-18T05:10 | 24.08876 | -19.92094 | 12.200 | 210.0 |
| 2026-02-18T05:20 | 24.05935 | -19.93941 | 12.175 | 210.0 |
| 2026-02-18T05:30 | 24.02980 | -19.95807 | 12.251 | 210.1 |
| 2026-02-18T05:40 | 24.00034 | -19.97657 | 12.198 | 210.0 |
| 2026-02-18T05:50 | 23.97069 | -19.99529 | 12.290 | 210.1 |
| 2026-02-18T06:00 | 23.94065 | -20.01415 | 12.437 | 210.0 |
| 2026-02-18T06:10 | 23.91044 | -20.03308 | 12.505 | 209.9 |
| 2026-02-18T06:20 | 23.88026 | -20.05199 | 12.490 | 209.9 |
| 2026-02-18T06:30 | 23.85021 | -20.07080 | 12.435 | 209.9 |
| 2026-02-18T06:40 | 23.82024 | -20.08954 | 12.398 | 209.9 |
| 2026-02-18T06:50 | 23.78972 | -20.10872 | 12.646 | 210.1 |
| 2026-02-18T07:00 | 23.75916 | -20.12786 | 12.647 | 210.0 |
| 2026-02-18T07:10 | 23.72857 | -20.14647 | 12.575 | 209.3 |
| 2026-02-18T07:20 | 23.69790 | -20.16422 | 12.465 | 208.1 |
| 2026-02-18T07:30 | 23.66713 | -20.18200 | 12.496 | 208.0 |
| 2026-02-18T07:40 | 23.63623 | -20.20020 | 12.609 | 208.5 |
| 2026-02-18T07:50 | 23.62199 | -20.20428 | 5.281 | 194.8 |
| 2026-02-18T08:00 | 23.62189 | -20.20417 | 0.048 | 136.2 |
| 2026-02-18T08:10 | 23.62192 | -20.20420 | 0.013 | 322.9 |
| 2026-02-18T08:20 | 23.62193 | -20.20420 | 0.004 | 341.5 |
| 2026-02-18T08:30 | 23.62193 | -20.20420 | 0.003 | 148.4 |
| 2026-02-18T08:40 | 23.62193 | -20.20420 | 0.000 | 317.3 |
| 2026-02-18T08:50 | 23.62193 | -20.20419 | 0.002 | 131.0 |
| 2026-02-18T09:00 | 23.62194 | -20.20420 | 0.004 | 337.3 |
| 2026-02-18T09:10 | 23.62193 | -20.20419 | 0.003 | 103.6 |
| 2026-02-18T09:20 | 23.62194 | -20.20421 | 0.006 | 292.9 |
| 2026-02-18T09:30 | 23.62194 | -20.20420 | 0.004 | 78.8 |
| 2026-02-18T09:40 | 23.62194 | -20.20420 | 0.001 | 222.7 |
| 2026-02-18T09:50 | 23.62190 | -20.20425 | 0.021 | 228.6 |
| 2026-02-18T10:00 | 23.60045 | -20.21537 | 8.525 | 205.6 |
| 2026-02-18T10:10 | 23.57025 | -20.23314 | 12.319 | 208.5 |
| 2026-02-18T10:20 | 23.53991 | -20.25045 | 12.295 | 207.7 |
| 2026-02-18T10:30 | 23.50965 | -20.26763 | 12.248 | 207.7 |
| 2026-02-18T10:40 | 23.47902 | -20.28259 | 12.047 | 204.2 |
| 2026-02-18T10:50 | 23.44659 | -20.29287 | 12.118 | 196.3 |
| 2026-02-18T11:00 | 23.41406 | -20.30373 | 12.204 | 197.1 |
| 2026-02-18T11:10 | 23.38121 | -20.31470 | 12.330 | 197.1 |
| 2026-02-18T11:20 | 23.34870 | -20.32564 | 12.207 | 197.3 |
| 2026-02-18T11:30 | 23.31618 | -20.33575 | 12.132 | 196.0 |
| 2026-02-18T11:40 | 23.28366 | -20.34602 | 12.147 | 196.3 |
| 2026-02-18T11:50 | 23.25092 | -20.35624 | 12.218 | 196.1 |
| 2026-02-18T12:00 | 23.21807 | -20.36630 | 12.245 | 195.8 |
| 2026-02-18T12:10 | 23.18530 | -20.37648 | 12.225 | 196.0 |
| 2026-02-18T12:20 | 23.15201 | -20.38673 | 12.413 | 195.9 |
| 2026-02-18T12:30 | 23.11842 | -20.39704 | 12.519 | 195.8 |
| 2026-02-18T12:40 | 23.08488 | -20.40776 | 12.540 | 196.5 |
| 2026-02-18T12:50 | 23.05126 | -20.41820 | 12.544 | 196.0 |
| 2026-02-18T13:00 | 23.01743 | -20.42742 | 12.511 | 194.2 |
| 2026-02-18T13:10 | 22.98353 | -20.43672 | 12.544 | 194.2 |
| 2026-02-18T13:20 | 22.94950 | -20.44585 | 12.573 | 193.9 |
| 2026-02-18T13:30 | 22.91562 | -20.45508 | 12.528 | 194.2 |
| 2026-02-18T13:40 | 22.88137 | -20.46430 | 12.659 | 194.0 |
| 2026-02-18T13:50 | 22.84696 | -20.47362 | 12.723 | 194.1 |
| 2026-02-18T14:00 | 22.81255 | -20.48287 | 12.713 | 194.0 |
| 2026-02-18T14:10 | 22.77841 | -20.49209 | 12.622 | 194.1 |
| 2026-02-18T14:20 | 22.74398 | -20.50136 | 12.723 | 194.0 |
| 2026-02-18T14:30 | 22.70922 | -20.51079 | 12.854 | 194.1 |
| 2026-02-18T14:40 | 22.67492 | -20.51991 | 12.668 | 193.9 |
| 2026-02-18T14:50 | 22.64135 | -20.52882 | 12.400 | 193.8 |
| 2026-02-18T15:00 | 22.60739 | -20.53790 | 12.545 | 193.9 |
| 2026-02-18T15:10 | 22.57319 | -20.54708 | 12.637 | 194.0 |
| 2026-02-18T15:20 | 22.53938 | -20.55618 | 12.497 | 194.0 |
| 2026-02-18T15:30 | 22.50563 | -20.56526 | 12.476 | 194.0 |
| 2026-02-18T15:40 | 22.47209 | -20.57403 | 12.376 | 193.7 |
| 2026-02-18T15:50 | 22.43865 | -20.58270 | 12.334 | 193.6 |
| 2026-02-18T16:00 | 22.40443 | -20.58766 | 12.379 | 187.7 |
| 2026-02-18T16:10 | 22.36970 | -20.59217 | 12.543 | 186.9 |
| 2026-02-18T16:20 | 22.33485 | -20.59670 | 12.587 | 186.9 |
| 2026-02-18T16:30 | 22.29978 | -20.60130 | 12.669 | 187.0 |
| 2026-02-18T16:40 | 22.26453 | -20.60594 | 12.733 | 187.0 |
| 2026-02-18T16:50 | 22.22916 | -20.61073 | 12.783 | 187.2 |
| 2026-02-18T17:00 | 22.19385 | -20.61519 | 12.748 | 186.7 |
| 2026-02-18T17:10 | 22.15849 | -20.61993 | 12.775 | 187.1 |
| 2026-02-18T17:20 | 22.12317 | -20.62466 | 12.762 | 187.1 |
| 2026-02-18T17:30 | 22.08787 | -20.62935 | 12.755 | 187.1 |
| 2026-02-18T17:40 | 22.05280 | -20.63385 | 12.662 | 186.8 |
| 2026-02-18T17:50 | 22.01784 | -20.63880 | 12.644 | 187.5 |
| 2026-02-18T18:00 | 21.98280 | -20.64322 | 12.648 | 186.7 |
| 2026-02-18T18:10 | 21.94803 | -20.64778 | 12.560 | 187.0 |
| 2026-02-18T18:20 | 21.91316 | -20.65243 | 12.597 | 187.1 |
| 2026-02-18T18:30 | 21.87830 | -20.65706 | 12.597 | 187.1 |
| 2026-02-18T18:40 | 21.84373 | -20.66156 | 12.485 | 186.9 |
| 2026-02-18T18:50 | 21.80918 | -20.66625 | 12.488 | 187.2 |
| 2026-02-18T19:00 | 21.77479 | -20.67062 | 12.415 | 186.8 |
| 2026-02-18T19:10 | 21.74068 | -20.67529 | 12.330 | 187.3 |
| 2026-02-18T19:20 | 21.70681 | -20.67970 | 12.230 | 186.9 |
| 2026-02-18T19:30 | 21.67303 | -20.68410 | 12.203 | 186.9 |
| 2026-02-18T19:40 | 21.63934 | -20.68864 | 12.173 | 187.2 |
| 2026-02-18T19:50 | 21.60587 | -20.69303 | 12.089 | 187.0 |
| 2026-02-18T20:00 | 21.57234 | -20.69738 | 12.111 | 186.9 |
| 2026-02-18T20:10 | 21.53866 | -20.70188 | 12.171 | 187.1 |
| 2026-02-18T20:20 | 21.50503 | -20.70628 | 12.145 | 187.0 |
| 2026-02-18T20:30 | 21.47205 | -20.71061 | 11.914 | 187.0 |
| 2026-02-18T20:40 | 21.43923 | -20.71494 | 11.855 | 187.0 |
| 2026-02-18T20:50 | 21.40615 | -20.71921 | 11.947 | 186.9 |
| 2026-02-18T21:00 | 21.37319 | -20.72353 | 11.904 | 187.0 |
| 2026-02-18T21:10 | 21.34008 | -20.72785 | 11.961 | 187.0 |
| 2026-02-18T21:20 | 21.30697 | -20.73134 | 11.927 | 185.6 |
| 2026-02-18T21:30 | 21.27415 | -20.73382 | 11.795 | 184.1 |
| 2026-02-18T21:40 | 21.24099 | -20.73636 | 11.920 | 184.1 |
| 2026-02-18T21:50 | 21.20733 | -20.73910 | 12.102 | 184.3 |
| 2026-02-18T22:00 | 21.17378 | -20.74154 | 12.055 | 183.9 |
| 2026-02-18T22:10 | 21.14046 | -20.74412 | 11.980 | 184.2 |
| 2026-02-18T22:20 | 21.10728 | -20.74659 | 11.924 | 184.0 |
| 2026-02-18T22:30 | 21.07414 | -20.74926 | 11.912 | 184.3 |
| 2026-02-18T22:40 | 21.04054 | -20.75168 | 12.074 | 183.9 |
| 2026-02-18T22:50 | 21.00733 | -20.75387 | 11.928 | 183.5 |
| 2026-02-18T23:00 | 20.97400 | -20.75536 | 11.961 | 182.4 |
| 2026-02-18T23:10 | 20.94080 | -20.75688 | 11.914 | 182.4 |
| 2026-02-18T23:20 | 20.90766 | -20.75776 | 11.883 | 181.4 |
| 2026-02-18T23:30 | 20.87383 | -20.75826 | 12.128 | 180.8 |
| 2026-02-18T23:40 | 20.83977 | -20.75884 | 12.212 | 180.9 |
| 2026-02-18T23:50 | 20.80542 | -20.75946 | 12.318 | 181.0 |
| 2026-02-19T00:00 | 20.77111 | -20.75955 | 12.297 | 180.1 |
| 2026-02-19T00:10 | 20.73670 | -20.75952 | 12.338 | 179.9 |
| 2026-02-19T00:20 | 20.70214 | -20.75952 | 12.387 | 180.0 |
| 2026-02-19T00:30 | 20.66785 | -20.75940 | 12.294 | 179.8 |
| 2026-02-19T00:40 | 20.63355 | -20.75945 | 12.297 | 180.1 |
| 2026-02-19T00:50 | 20.59936 | -20.75947 | 12.256 | 180.0 |
| 2026-02-19T01:00 | 20.56508 | -20.75954 | 12.289 | 180.1 |
| 2026-02-19T01:10 | 20.53069 | -20.75955 | 12.326 | 180.0 |
| 2026-02-19T01:20 | 20.49660 | -20.75956 | 12.222 | 180.0 |
| 2026-02-19T01:30 | 20.46296 | -20.75955 | 12.058 | 180.0 |
| 2026-02-19T01:40 | 20.42963 | -20.75952 | 11.948 | 179.9 |
| 2026-02-19T01:50 | 20.39607 | -20.75954 | 12.033 | 180.0 |
| 2026-02-19T02:00 | 20.36233 | -20.75953 | 12.094 | 180.0 |
| 2026-02-19T02:10 | 20.32892 | -20.75955 | 11.977 | 180.0 |
| 2026-02-19T02:20 | 20.29511 | -20.75947 | 12.119 | 179.9 |
| 2026-02-19T02:30 | 20.26145 | -20.75949 | 12.069 | 180.0 |
| 2026-02-19T02:40 | 20.22799 | -20.75949 | 11.993 | 180.0 |
| 2026-02-19T02:50 | 20.19468 | -20.76075 | 11.949 | 182.0 |
| 2026-02-19T03:00 | 20.18261 | -20.77223 | 5.816 | 221.9 |
| 2026-02-19T03:10 | 20.14868 | -20.77089 | 12.172 | 177.9 |
| 2026-02-19T03:20 | 20.11465 | -20.76967 | 12.205 | 178.1 |
| 2026-02-19T03:30 | 20.08055 | -20.76837 | 12.231 | 177.9 |
| 2026-02-19T03:40 | 20.04685 | -20.76709 | 12.086 | 177.9 |
| 2026-02-19T03:50 | 20.01338 | -20.76583 | 12.004 | 178.0 |
| 2026-02-19T04:00 | 19.97981 | -20.76459 | 12.044 | 178.0 |
| 2026-02-19T04:10 | 19.94599 | -20.76349 | 12.129 | 178.2 |
| 2026-02-19T04:20 | 19.91242 | -20.76214 | 12.041 | 177.8 |
| 2026-02-19T04:30 | 19.87860 | -20.76091 | 12.129 | 178.0 |
| 2026-02-19T04:40 | 19.84495 | -20.75975 | 12.070 | 178.1 |
| 2026-02-19T04:50 | 19.81085 | -20.75851 | 12.230 | 178.0 |
| 2026-02-19T05:00 | 19.77685 | -20.75733 | 12.193 | 178.1 |
| 2026-02-19T05:10 | 19.74294 | -20.75602 | 12.162 | 177.9 |
| 2026-02-19T05:20 | 19.70917 | -20.75487 | 12.113 | 178.2 |
| 2026-02-19T05:30 | 19.67506 | -20.75353 | 12.234 | 177.9 |
| 2026-02-19T05:40 | 19.64119 | -20.75239 | 12.149 | 178.2 |
| 2026-02-19T05:50 | 19.60735 | -20.75120 | 12.137 | 178.1 |
| 2026-02-19T06:00 | 19.57330 | -20.74993 | 12.212 | 178.0 |
| 2026-02-19T06:10 | 19.53898 | -20.74868 | 12.307 | 178.0 |
| 2026-02-19T06:20 | 19.50428 | -20.74742 | 12.447 | 178.0 |
| 2026-02-19T06:30 | 19.46962 | -20.74614 | 12.430 | 178.0 |
| 2026-02-19T06:40 | 19.43540 | -20.74497 | 12.273 | 178.1 |
| 2026-02-19T06:50 | 19.40181 | -20.74378 | 12.046 | 178.1 |
| 2026-02-19T07:00 | 19.36799 | -20.74248 | 12.131 | 177.9 |
| 2026-02-19T07:10 | 19.33438 | -20.74130 | 12.055 | 178.1 |
| 2026-02-19T07:20 | 19.30074 | -20.73987 | 12.068 | 177.7 |
| 2026-02-19T07:30 | 19.26712 | -20.73866 | 12.055 | 178.1 |
| 2026-02-19T07:40 | 19.23357 | -20.73751 | 12.033 | 178.1 |
| 2026-02-19T07:50 | 19.20000 | -20.73621 | 12.041 | 177.9 |
| 2026-02-19T08:00 | 19.16648 | -20.73486 | 12.024 | 177.8 |
| 2026-02-19T08:10 | 19.13264 | -20.73358 | 12.136 | 177.9 |
| 2026-02-19T08:20 | 19.09875 | -20.73239 | 12.154 | 178.1 |
| 2026-02-19T08:30 | 19.06461 | -20.73123 | 12.243 | 178.1 |
| 2026-02-19T08:40 | 19.03059 | -20.72993 | 12.202 | 177.9 |
| 2026-02-19T08:50 | 18.99651 | -20.72858 | 12.221 | 177.8 |
| 2026-02-19T09:00 | 18.96281 | -20.72734 | 12.086 | 178.0 |
| 2026-02-19T09:10 | 18.92919 | -20.72619 | 12.059 | 178.1 |
| 2026-02-19T09:20 | 18.89553 | -20.72491 | 12.073 | 177.9 |
| 2026-02-19T09:30 | 18.86159 | -20.72370 | 12.169 | 178.0 |
| 2026-02-19T09:40 | 18.82744 | -20.72236 | 12.251 | 177.9 |
| 2026-02-19T09:50 | 18.79390 | -20.72117 | 12.025 | 178.1 |
| 2026-02-19T10:00 | 18.76032 | -20.72001 | 12.043 | 178.1 |
| 2026-02-19T10:10 | 18.72734 | -20.71886 | 11.828 | 178.1 |
| 2026-02-19T10:20 | 18.69410 | -20.71765 | 11.919 | 178.0 |
| 2026-02-19T10:30 | 18.66046 | -20.71635 | 12.067 | 177.9 |
| 2026-02-19T10:40 | 18.62667 | -20.71514 | 12.115 | 178.0 |
| 2026-02-19T10:50 | 18.59331 | -20.71373 | 11.967 | 177.7 |
| 2026-02-19T11:00 | 18.56046 | -20.71194 | 11.790 | 177.0 |
| 2026-02-19T11:10 | 18.52795 | -20.71047 | 11.663 | 177.5 |
| 2026-02-19T11:20 | 18.49526 | -20.70922 | 11.722 | 177.9 |
| 2026-02-19T11:30 | 18.46241 | -20.70817 | 11.781 | 178.2 |
| 2026-02-19T11:40 | 18.42950 | -20.70693 | 11.800 | 177.9 |
| 2026-02-19T11:50 | 18.39646 | -20.70570 | 11.851 | 178.0 |
| 2026-02-19T12:00 | 18.36338 | -20.70453 | 11.861 | 178.1 |
| 2026-02-19T12:10 | 18.33013 | -20.70334 | 11.923 | 178.0 |
| 2026-02-19T12:20 | 18.29713 | -20.70215 | 11.837 | 178.0 |
| 2026-02-19T12:30 | 18.26419 | -20.70094 | 11.810 | 178.0 |
| 2026-02-19T12:40 | 18.23165 | -20.69974 | 11.669 | 178.0 |
| 2026-02-19T12:50 | 18.19897 | -20.69859 | 11.719 | 178.1 |
| 2026-02-19T13:00 | 18.16610 | -20.69745 | 11.788 | 178.1 |
| 2026-02-19T13:10 | 18.13333 | -20.69625 | 11.749 | 178.0 |
| 2026-02-19T13:20 | 18.10017 | -20.69501 | 11.891 | 177.9 |
| 2026-02-19T13:30 | 18.06663 | -20.69365 | 12.030 | 177.8 |
| 2026-02-19T13:40 | 18.03338 | -20.69191 | 11.931 | 177.1 |
| 2026-02-19T13:50 | 17.99987 | -20.69006 | 12.025 | 177.0 |
| 2026-02-19T14:00 | 17.96627 | -20.68825 | 12.059 | 177.1 |
| 2026-02-19T14:10 | 17.93275 | -20.68643 | 12.031 | 177.0 |
| 2026-02-19T14:20 | 17.89933 | -20.68461 | 11.992 | 177.0 |
| 2026-02-19T14:30 | 17.86580 | -20.68282 | 12.032 | 177.1 |
| 2026-02-19T14:40 | 17.83208 | -20.68092 | 12.103 | 176.9 |
| 2026-02-19T14:50 | 17.79856 | -20.67911 | 12.027 | 177.0 |
| 2026-02-19T15:00 | 17.76463 | -20.67743 | 12.175 | 177.3 |
| 2026-02-19T15:10 | 17.73074 | -20.67616 | 12.154 | 177.9 |
| 2026-02-19T15:20 | 17.69682 | -20.67492 | 12.161 | 178.0 |
| 2026-02-19T15:30 | 17.66348 | -20.67373 | 11.956 | 178.0 |
| 2026-02-19T15:40 | 17.62982 | -20.67250 | 12.072 | 178.0 |
| 2026-02-19T15:50 | 17.59622 | -20.67126 | 12.046 | 178.0 |
| 2026-02-19T16:00 | 17.56268 | -20.67004 | 12.029 | 178.0 |
| 2026-02-19T16:10 | 17.52882 | -20.66826 | 12.149 | 177.1 |
| 2026-02-19T16:20 | 17.49507 | -20.66647 | 12.110 | 177.1 |
| 2026-02-19T16:30 | 17.46117 | -20.66466 | 12.165 | 177.1 |
| 2026-02-19T16:40 | 17.42720 | -20.66283 | 12.188 | 177.0 |
| 2026-02-19T16:50 | 17.39272 | -20.66095 | 12.374 | 177.0 |
| 2026-02-19T17:00 | 17.35793 | -20.65947 | 12.479 | 177.7 |
| 2026-02-19T17:10 | 17.32304 | -20.65827 | 12.509 | 178.1 |
| 2026-02-19T17:20 | 17.28838 | -20.65666 | 12.434 | 177.4 |
| 2026-02-19T17:30 | 17.25420 | -20.65475 | 12.263 | 176.9 |
| 2026-02-19T17:40 | 17.22010 | -20.65290 | 12.238 | 177.0 |
| 2026-02-19T17:50 | 17.18565 | -20.65112 | 12.362 | 177.2 |
| 2026-02-19T18:00 | 17.15137 | -20.64916 | 12.300 | 176.8 |
| 2026-02-19T18:10 | 17.11699 | -20.64781 | 12.329 | 177.8 |
| 2026-02-19T18:20 | 17.08252 | -20.64663 | 12.360 | 178.1 |
| 2026-02-19T18:30 | 17.04804 | -20.64531 | 12.363 | 177.9 |
| 2026-02-19T18:40 | 17.01427 | -20.64411 | 12.109 | 178.1 |
| 2026-02-19T18:50 | 16.98055 | -20.64293 | 12.090 | 178.1 |
| 2026-02-19T19:00 | 16.94647 | -20.64180 | 12.219 | 178.2 |
| 2026-02-19T19:10 | 16.91226 | -20.64040 | 12.268 | 177.7 |
| 2026-02-19T19:20 | 16.87767 | -20.63915 | 12.404 | 178.0 |
| 2026-02-19T19:30 | 16.84292 | -20.63793 | 12.461 | 178.1 |
| 2026-02-19T19:40 | 16.80819 | -20.63664 | 12.452 | 178.0 |
| 2026-02-19T19:50 | 16.77366 | -20.63542 | 12.381 | 178.1 |
| 2026-02-19T20:00 | 16.73943 | -20.63419 | 12.272 | 178.0 |
| 2026-02-19T20:10 | 16.70484 | -20.63292 | 12.403 | 178.0 |
| 2026-02-19T20:20 | 16.67015 | -20.63172 | 12.437 | 178.1 |
| 2026-02-19T20:30 | 16.63560 | -20.63042 | 12.389 | 177.9 |
| 2026-02-19T20:40 | 16.60088 | -20.62924 | 12.448 | 178.1 |
| 2026-02-19T20:50 | 16.56670 | -20.62791 | 12.258 | 177.8 |
| 2026-02-19T21:00 | 16.53268 | -20.62665 | 12.197 | 177.9 |
| 2026-02-19T21:10 | 16.49860 | -20.62539 | 12.218 | 178.0 |
| 2026-02-19T21:20 | 16.46416 | -20.62416 | 12.348 | 178.0 |
| 2026-02-19T21:30 | 16.42935 | -20.62296 | 12.482 | 178.1 |
| 2026-02-19T21:40 | 16.39432 | -20.62163 | 12.561 | 177.9 |
| 2026-02-19T21:50 | 16.35939 | -20.61998 | 12.529 | 177.4 |
| 2026-02-19T22:00 | 16.32433 | -20.61802 | 12.579 | 176.9 |
| 2026-02-19T22:10 | 16.28952 | -20.61609 | 12.491 | 176.9 |
| 2026-02-19T22:20 | 16.25461 | -20.61424 | 12.527 | 177.1 |
| 2026-02-19T22:30 | 16.21923 | -20.61238 | 12.694 | 177.1 |
| 2026-02-19T22:40 | 16.18416 | -20.61040 | 12.584 | 176.9 |
| 2026-02-19T22:50 | 16.14986 | -20.60857 | 12.305 | 177.0 |
| 2026-02-19T23:00 | 16.11563 | -20.60719 | 12.278 | 177.8 |
| 2026-02-19T23:10 | 16.08124 | -20.60595 | 12.327 | 178.0 |
| 2026-02-19T23:20 | 16.04717 | -20.60459 | 12.218 | 177.8 |
| 2026-02-19T23:30 | 16.01365 | -20.60330 | 12.018 | 177.9 |
| 2026-02-19T23:40 | 15.98015 | -20.60215 | 12.012 | 178.1 |
| 2026-02-19T23:50 | 15.94654 | -20.60095 | 12.049 | 178.0 |
| 2026-02-20T00:00 | 15.91286 | -20.59983 | 12.073 | 178.1 |
| 2026-02-20T00:10 | 15.87964 | -20.59867 | 11.910 | 178.1 |
| 2026-02-20T00:20 | 15.84696 | -20.59752 | 11.718 | 178.1 |
| 2026-02-20T00:30 | 15.81457 | -20.59634 | 11.612 | 178.0 |
| 2026-02-20T00:40 | 15.78241 | -20.59502 | 11.533 | 177.7 |
| 2026-02-20T00:50 | 15.75028 | -20.59385 | 11.517 | 178.0 |
| 2026-02-20T01:00 | 15.71772 | -20.59271 | 11.673 | 178.1 |
| 2026-02-20T01:10 | 15.68483 | -20.59148 | 11.795 | 177.9 |
| 2026-02-20T01:20 | 15.65172 | -20.59039 | 11.868 | 178.2 |
| 2026-02-20T01:30 | 15.61848 | -20.58917 | 11.920 | 178.0 |
| 2026-02-20T01:40 | 15.58533 | -20.58756 | 11.891 | 177.3 |
| 2026-02-20T01:50 | 15.55230 | -20.58622 | 11.844 | 177.7 |
| 2026-02-20T02:00 | 15.51918 | -20.58478 | 11.877 | 177.6 |
| 2026-02-20T02:10 | 15.48601 | -20.58349 | 11.891 | 177.8 |
| 2026-02-20T02:20 | 15.45268 | -20.58231 | 11.949 | 178.0 |
| 2026-02-20T02:30 | 15.41951 | -20.58117 | 11.892 | 178.1 |
| 2026-02-20T02:40 | 15.38642 | -20.58000 | 11.863 | 178.0 |
| 2026-02-20T02:50 | 15.35341 | -20.57888 | 11.835 | 178.1 |
| 2026-02-20T03:00 | 15.33764 | -20.59239 | 7.349 | 219.8 |
| 2026-02-20T03:10 | 15.30832 | -20.59043 | 10.527 | 176.3 |
| 2026-02-20T03:20 | 15.27545 | -20.58773 | 11.812 | 175.4 |
| 2026-02-20T03:30 | 15.24269 | -20.58538 | 11.766 | 176.0 |
| 2026-02-20T03:40 | 15.20996 | -20.58310 | 11.754 | 176.1 |
| 2026-02-20T03:50 | 15.17734 | -20.58081 | 11.714 | 176.1 |
| 2026-02-20T04:00 | 15.14494 | -20.57868 | 11.634 | 176.3 |
| 2026-02-20T04:10 | 15.11302 | -20.57636 | 11.465 | 176.0 |
| 2026-02-20T04:20 | 15.08080 | -20.57408 | 11.570 | 176.1 |
| 2026-02-20T04:30 | 15.04882 | -20.57168 | 11.490 | 175.8 |
| 2026-02-20T04:40 | 15.01702 | -20.56942 | 11.421 | 176.0 |
| 2026-02-20T04:50 | 14.98500 | -20.56747 | 11.489 | 176.6 |
| 2026-02-20T05:00 | 14.95185 | -20.56505 | 11.907 | 175.9 |
| 2026-02-20T05:10 | 14.91842 | -20.56262 | 12.009 | 176.0 |
| 2026-02-20T05:20 | 14.88436 | -20.56013 | 12.232 | 175.9 |
| 2026-02-20T05:30 | 14.85021 | -20.55772 | 12.265 | 176.1 |
| 2026-02-20T05:40 | 14.81574 | -20.55507 | 12.383 | 175.7 |
| 2026-02-20T05:50 | 14.78118 | -20.55244 | 12.417 | 175.8 |
| 2026-02-20T06:00 | 14.74639 | -20.54997 | 12.493 | 176.1 |
| 2026-02-20T06:10 | 14.71178 | -20.54744 | 12.433 | 175.9 |
| 2026-02-20T06:20 | 14.67687 | -20.54506 | 12.534 | 176.2 |
| 2026-02-20T06:30 | 14.64219 | -20.54310 | 12.444 | 176.8 |
| 2026-02-20T06:40 | 14.60737 | -20.54133 | 12.489 | 177.2 |
| 2026-02-20T06:50 | 14.57258 | -20.53947 | 12.481 | 177.0 |
| 2026-02-20T07:00 | 14.53834 | -20.53746 | 12.288 | 176.7 |
| 2026-02-20T07:10 | 14.50462 | -20.53570 | 12.097 | 177.1 |
| 2026-02-20T07:20 | 14.47115 | -20.53376 | 12.008 | 176.8 |
| 2026-02-20T07:30 | 14.43733 | -20.53204 | 12.131 | 177.2 |
| 2026-02-20T07:40 | 14.40347 | -20.53018 | 12.150 | 176.9 |
| 2026-02-20T07:50 | 14.36954 | -20.52920 | 12.161 | 178.4 |
| 2026-02-20T08:00 | 14.33587 | -20.52856 | 12.062 | 178.9 |
| 2026-02-20T08:10 | 14.30223 | -20.52802 | 12.055 | 179.1 |
| 2026-02-20T08:20 | 14.26843 | -20.52729 | 12.112 | 178.8 |
| 2026-02-20T08:30 | 14.23463 | -20.52675 | 12.109 | 179.1 |
| 2026-02-20T08:40 | 14.20043 | -20.52613 | 12.255 | 179.0 |
| 2026-02-20T08:50 | 14.16558 | -20.52552 | 12.489 | 179.0 |
| 2026-02-20T09:00 | 14.13026 | -20.52484 | 12.653 | 178.9 |
| 2026-02-20T09:10 | 14.09525 | -20.52363 | 12.551 | 178.1 |
| 2026-02-20T09:20 | 14.06048 | -20.52236 | 12.466 | 177.9 |
| 2026-02-20T09:30 | 14.02619 | -20.52121 | 12.290 | 178.1 |
| 2026-02-20T09:40 | 13.99222 | -20.51962 | 12.180 | 177.4 |
| 2026-02-20T09:50 | 13.95861 | -20.51775 | 12.061 | 176.9 |
| 2026-02-20T10:00 | 13.92498 | -20.51601 | 12.060 | 177.1 |
| 2026-02-20T10:10 | 13.89155 | -20.51415 | 11.997 | 176.9 |
| 2026-02-20T10:20 | 13.85841 | -20.51272 | 11.882 | 177.6 |
| 2026-02-20T10:30 | 13.82482 | -20.51159 | 12.041 | 178.1 |
| 2026-02-20T10:40 | 13.79104 | -20.51032 | 12.108 | 177.9 |
| 2026-02-20T10:50 | 13.75743 | -20.50908 | 12.049 | 177.9 |
| 2026-02-20T11:00 | 13.72383 | -20.50796 | 12.044 | 178.1 |
| 2026-02-20T11:10 | 13.69019 | -20.50677 | 12.058 | 178.0 |
| 2026-02-20T11:20 | 13.65632 | -20.50549 | 12.139 | 177.9 |
| 2026-02-20T11:30 | 13.62274 | -20.50435 | 12.037 | 178.1 |
| 2026-02-20T11:40 | 13.58902 | -20.50312 | 12.089 | 178.0 |
| 2026-02-20T11:50 | 13.55546 | -20.50198 | 12.029 | 178.1 |
| 2026-02-20T12:00 | 13.52225 | -20.50082 | 11.904 | 178.1 |
| 2026-02-20T12:10 | 13.48937 | -20.49974 | 11.783 | 178.2 |
| 2026-02-20T12:20 | 13.45657 | -20.49849 | 11.758 | 177.9 |
| 2026-02-20T12:30 | 13.42342 | -20.49730 | 11.882 | 178.0 |
| 2026-02-20T12:40 | 13.39005 | -20.49611 | 11.965 | 178.0 |
| 2026-02-20T12:50 | 13.35669 | -20.49495 | 11.958 | 178.1 |
| 2026-02-20T13:00 | 13.32347 | -20.49380 | 11.907 | 178.1 |
| 2026-02-20T13:10 | 13.29074 | -20.49283 | 11.728 | 178.3 |
| 2026-02-20T13:20 | 13.25756 | -20.49336 | 11.887 | 180.9 |
| 2026-02-20T13:30 | 13.22467 | -20.49176 | 11.797 | 177.3 |
| 2026-02-20T13:40 | 13.19132 | -20.48967 | 11.968 | 176.5 |
| 2026-02-20T13:50 | 13.15808 | -20.48916 | 11.912 | 179.1 |
| 2026-02-20T14:00 | 13.12576 | -20.48609 | 11.627 | 174.7 |
| 2026-02-20T14:10 | 13.09338 | -20.48346 | 11.635 | 175.5 |
| 2026-02-20T14:20 | 13.06156 | -20.48049 | 11.446 | 174.8 |
| 2026-02-20T14:30 | 13.02974 | -20.47682 | 11.471 | 173.5 |
| 2026-02-20T14:40 | 12.99825 | -20.47067 | 11.486 | 169.2 |
| 2026-02-20T14:50 | 12.96636 | -20.46422 | 11.645 | 168.8 |
| 2026-02-20T15:00 | 12.93444 | -20.45784 | 11.652 | 168.9 |
| 2026-02-20T15:10 | 12.90213 | -20.45133 | 11.800 | 168.8 |
| 2026-02-20T15:20 | 12.86913 | -20.44479 | 12.040 | 169.0 |
| 2026-02-20T15:30 | 12.83590 | -20.43844 | 12.113 | 169.4 |
| 2026-02-20T15:40 | 12.80215 | -20.43164 | 12.322 | 168.8 |
| 2026-02-20T15:50 | 12.76874 | -20.42522 | 12.182 | 169.3 |
| 2026-02-20T16:00 | 12.73502 | -20.41842 | 12.311 | 168.8 |
| 2026-02-20T16:10 | 12.70103 | -20.41163 | 12.409 | 168.9 |
| 2026-02-20T16:20 | 12.66700 | -20.40487 | 12.418 | 169.0 |
| 2026-02-20T16:30 | 12.63324 | -20.39811 | 12.327 | 168.9 |
| 2026-02-20T16:40 | 12.59908 | -20.39213 | 12.415 | 170.2 |
| 2026-02-20T16:50 | 12.56511 | -20.38593 | 12.364 | 169.8 |
| 2026-02-20T17:00 | 12.53167 | -20.37945 | 12.191 | 169.2 |
| 2026-02-20T17:10 | 12.49792 | -20.37279 | 12.316 | 169.0 |
| 2026-02-20T17:20 | 12.46367 | -20.36657 | 12.463 | 169.9 |
| 2026-02-20T17:30 | 12.42954 | -20.36058 | 12.406 | 170.2 |
| 2026-02-20T17:40 | 12.39554 | -20.35442 | 12.369 | 169.9 |
| 2026-02-20T17:50 | 12.36171 | -20.34843 | 12.302 | 170.1 |
| 2026-02-20T18:00 | 12.32761 | -20.34236 | 12.401 | 170.1 |
| 2026-02-20T18:10 | 12.29390 | -20.33624 | 12.266 | 169.9 |
| 2026-02-20T18:20 | 12.26018 | -20.33015 | 12.266 | 169.9 |
| 2026-02-20T18:30 | 12.22628 | -20.32412 | 12.326 | 170.1 |
| 2026-02-20T18:40 | 12.19201 | -20.31800 | 12.464 | 170.0 |
| 2026-02-20T18:50 | 12.15795 | -20.31185 | 12.392 | 169.9 |
| 2026-02-20T19:00 | 12.12382 | -20.30573 | 12.412 | 170.0 |
| 2026-02-20T19:10 | 12.08991 | -20.29964 | 12.336 | 170.0 |
| 2026-02-20T19:20 | 12.05629 | -20.29303 | 12.269 | 169.1 |
| 2026-02-20T19:30 | 12.02298 | -20.28650 | 12.150 | 169.1 |
| 2026-02-20T19:40 | 11.98945 | -20.27984 | 12.238 | 168.9 |
| 2026-02-20T19:50 | 11.95578 | -20.27315 | 12.286 | 168.9 |
| 2026-02-20T20:00 | 11.92177 | -20.26657 | 12.404 | 169.2 |
| 2026-02-20T20:10 | 11.88762 | -20.25978 | 12.464 | 168.9 |
| 2026-02-20T20:20 | 11.85345 | -20.25303 | 12.470 | 169.0 |
| 2026-02-20T20:30 | 11.81984 | -20.24643 | 12.261 | 169.1 |
| 2026-02-20T20:40 | 11.78629 | -20.23963 | 12.255 | 168.7 |
| 2026-02-20T20:50 | 11.75286 | -20.23283 | 12.210 | 168.7 |
| 2026-02-20T21:00 | 11.71933 | -20.22610 | 12.245 | 168.8 |
| 2026-02-20T21:10 | 11.68590 | -20.21959 | 12.191 | 169.1 |
| 2026-02-20T21:20 | 11.65211 | -20.21326 | 12.306 | 169.5 |
| 2026-02-20T21:30 | 11.61850 | -20.20666 | 12.262 | 169.0 |
| 2026-02-20T21:40 | 11.58494 | -20.20006 | 12.245 | 169.0 |
| 2026-02-20T21:50 | 11.55115 | -20.19338 | 12.333 | 169.0 |
| 2026-02-20T22:00 | 11.51747 | -20.18674 | 12.289 | 169.0 |
| 2026-02-20T22:10 | 11.48377 | -20.17991 | 12.309 | 168.7 |
| 2026-02-20T22:20 | 11.45026 | -20.17344 | 12.218 | 169.2 |
| 2026-02-20T22:30 | 11.41690 | -20.16701 | 12.164 | 169.2 |
| 2026-02-20T22:40 | 11.38351 | -20.16035 | 12.186 | 168.9 |
| 2026-02-20T22:50 | 11.35004 | -20.15370 | 12.217 | 168.9 |
| 2026-02-20T23:00 | 11.31653 | -20.14730 | 12.216 | 169.3 |
| 2026-02-20T23:10 | 11.28340 | -20.14063 | 12.099 | 168.8 |
| 2026-02-20T23:20 | 11.25042 | -20.13434 | 12.017 | 169.3 |
| 2026-02-20T23:30 | 11.21744 | -20.12777 | 12.039 | 168.9 |
| 2026-02-20T23:40 | 11.18370 | -20.12294 | 12.206 | 171.9 |
| 2026-02-20T23:50 | 11.14998 | -20.11806 | 12.200 | 171.9 |
| 2026-02-21T00:00 | 11.11634 | -20.11323 | 12.171 | 171.9 |
| 2026-02-21T00:10 | 11.08262 | -20.10843 | 12.198 | 172.0 |
| 2026-02-21T00:20 | 11.04873 | -20.10349 | 12.264 | 171.8 |
| 2026-02-21T00:30 | 11.01547 | -20.09698 | 12.131 | 169.1 |
| 2026-02-21T00:40 | 10.99997 | -20.09757 | 5.556 | 182.2 |
| 2026-02-21T00:50 | 10.99999 | -20.09749 | 0.030 | 79.0 |
| 2026-02-21T01:00 | 10.99999 | -20.09754 | 0.016 | 270.0 |
| 2026-02-21T01:10 | 10.99999 | -20.09751 | 0.008 | 92.5 |
| 2026-02-21T01:20 | 10.99999 | -20.09753 | 0.007 | 282.7 |
| 2026-02-21T01:30 | 10.99999 | -20.09754 | 0.004 | 245.3 |
| 2026-02-21T01:40 | 11.00000 | -20.09754 | 0.004 | 19.8 |
| 2026-02-21T01:50 | 10.99999 | -20.09755 | 0.006 | 217.2 |
| 2026-02-21T02:00 | 11.00002 | -20.09751 | 0.019 | 45.4 |
| 2026-02-21T02:10 | 10.99445 | -20.10185 | 2.520 | 217.6 |
| 2026-02-21T02:20 | 10.96214 | -20.09186 | 12.100 | 163.0 |
| 2026-02-21T02:30 | 10.92961 | -20.08156 | 12.207 | 162.6 |
| 2026-02-21T02:40 | 10.89687 | -20.07147 | 12.260 | 163.1 |
| 2026-02-21T02:50 | 10.86415 | -20.06076 | 12.317 | 162.1 |
| 2026-02-21T03:00 | 10.83130 | -20.04996 | 12.369 | 162.0 |
| 2026-02-21T03:10 | 10.79832 | -20.03925 | 12.406 | 162.2 |
| 2026-02-21T03:20 | 10.76563 | -20.02831 | 12.332 | 161.7 |
| 2026-02-21T03:30 | 10.73263 | -20.01757 | 12.420 | 162.2 |
| 2026-02-21T03:40 | 10.69972 | -20.00679 | 12.387 | 162.1 |
| 2026-02-21T03:50 | 10.66667 | -19.99587 | 12.453 | 161.9 |
| 2026-02-21T04:00 | 10.63389 | -19.98500 | 12.357 | 161.8 |
| 2026-02-21T04:10 | 10.60142 | -19.97429 | 12.232 | 161.9 |
| 2026-02-21T04:20 | 10.56922 | -19.96372 | 12.125 | 162.0 |
| 2026-02-21T04:30 | 10.53672 | -19.95310 | 12.235 | 162.1 |
| 2026-02-21T04:40 | 10.50339 | -19.94207 | 12.560 | 161.9 |
| 2026-02-21T04:50 | 10.46978 | -19.93076 | 12.688 | 161.6 |
| 2026-02-21T05:00 | 10.43649 | -19.91994 | 12.528 | 162.2 |
| 2026-02-21T05:10 | 10.40348 | -19.90914 | 12.426 | 162.1 |
| 2026-02-21T05:20 | 10.37030 | -19.89839 | 12.481 | 162.2 |
| 2026-02-21T05:30 | 10.33701 | -19.88719 | 12.565 | 161.6 |
| 2026-02-21T05:40 | 10.30395 | -19.87555 | 12.541 | 160.8 |
| 2026-02-21T05:50 | 10.27084 | -19.86421 | 12.523 | 161.3 |
| 2026-02-21T06:00 | 10.23823 | -19.85262 | 12.381 | 160.6 |
| 2026-02-21T06:10 | 10.20572 | -19.84145 | 12.298 | 161.2 |
| 2026-02-21T06:20 | 10.17298 | -19.83002 | 12.408 | 160.9 |
| 2026-02-21T06:30 | 10.14017 | -19.81866 | 12.426 | 161.1 |
| 2026-02-21T06:40 | 10.10887 | -19.80321 | 12.476 | 153.9 |
| 2026-02-21T06:50 | 10.07786 | -19.78671 | 12.559 | 152.2 |
| 2026-02-21T07:00 | 10.04706 | -19.77001 | 12.521 | 151.8 |
| 2026-02-21T07:10 | 10.01636 | -19.75357 | 12.448 | 152.0 |
| 2026-02-21T07:20 | 9.98568 | -19.73688 | 12.484 | 151.7 |
| 2026-02-21T07:30 | 9.95513 | -19.72064 | 12.368 | 152.2 |
| 2026-02-21T07:40 | 9.92501 | -19.70442 | 12.228 | 151.9 |
| 2026-02-21T07:50 | 9.89533 | -19.68835 | 12.066 | 151.8 |
| 2026-02-21T08:00 | 9.86482 | -19.67199 | 12.372 | 152.0 |
| 2026-02-21T08:10 | 9.83365 | -19.65528 | 12.645 | 152.0 |
| 2026-02-21T08:20 | 9.80255 | -19.63856 | 12.624 | 151.9 |
| 2026-02-21T08:30 | 9.77144 | -19.62185 | 12.624 | 151.9 |
| 2026-02-21T08:40 | 9.74043 | -19.60543 | 12.544 | 152.3 |
| 2026-02-21T08:50 | 9.70946 | -19.58886 | 12.558 | 152.0 |
| 2026-02-21T09:00 | 9.67850 | -19.57221 | 12.567 | 151.9 |
| 2026-02-21T09:10 | 9.64780 | -19.55573 | 12.456 | 151.9 |
| 2026-02-21T09:20 | 9.61821 | -19.53984 | 12.007 | 151.9 |
| 2026-02-21T09:30 | 9.58822 | -19.52383 | 12.156 | 152.1 |
| 2026-02-21T09:40 | 9.55884 | -19.50792 | 11.949 | 151.7 |
| 2026-02-21T09:50 | 9.52896 | -19.49207 | 12.093 | 152.2 |
| 2026-02-21T10:00 | 9.49946 | -19.47608 | 11.997 | 151.7 |
| 2026-02-21T10:10 | 9.46958 | -19.46026 | 12.089 | 152.3 |
| 2026-02-21T10:20 | 9.43962 | -19.44422 | 12.151 | 152.0 |
| 2026-02-21T10:30 | 9.40979 | -19.42821 | 12.106 | 151.9 |
| 2026-02-21T10:40 | 9.37977 | -19.41215 | 12.175 | 152.0 |
| 2026-02-21T10:50 | 9.34953 | -19.39594 | 12.269 | 152.0 |
| 2026-02-21T11:00 | 9.31906 | -19.37970 | 12.347 | 152.1 |
| 2026-02-21T11:10 | 9.28866 | -19.36174 | 12.621 | 149.6 |
| 2026-02-21T11:20 | 9.26136 | -19.33873 | 12.753 | 140.1 |
| 2026-02-21T11:30 | 9.23396 | -19.31562 | 12.804 | 140.0 |
| 2026-02-21T11:40 | 9.20666 | -19.29248 | 12.779 | 139.9 |
| 2026-02-21T11:50 | 9.18061 | -19.26950 | 12.407 | 138.8 |
| 2026-02-21T12:00 | 9.15534 | -19.24650 | 12.203 | 137.9 |
| 2026-02-21T12:10 | 9.12987 | -19.22358 | 12.240 | 138.2 |
| 2026-02-21T12:20 | 9.10398 | -19.20011 | 12.479 | 138.0 |
| 2026-02-21T12:30 | 9.07803 | -19.17653 | 12.521 | 137.9 |
| 2026-02-21T12:40 | 9.05261 | -19.15342 | 12.268 | 137.9 |
| 2026-02-21T12:50 | 9.02737 | -19.13051 | 12.175 | 137.9 |
| 2026-02-21T13:00 | 9.00207 | -19.10730 | 12.266 | 137.6 |
| 2026-02-21T13:10 | 8.97733 | -19.08408 | 12.116 | 137.0 |
| 2026-02-21T13:20 | 8.95241 | -19.06079 | 12.184 | 137.1 |
| 2026-02-21T13:30 | 8.92712 | -19.03705 | 12.391 | 137.0 |
| 2026-02-21T13:40 | 8.90179 | -19.01328 | 12.405 | 137.0 |
| 2026-02-21T13:50 | 8.87644 | -18.98968 | 12.373 | 137.2 |
| 2026-02-21T14:00 | 8.85150 | -18.96625 | 12.223 | 136.9 |
| 2026-02-21T14:10 | 8.82633 | -18.94267 | 12.320 | 137.0 |
| 2026-02-21T14:20 | 8.80071 | -18.91856 | 12.570 | 136.9 |
| 2026-02-21T14:30 | 8.77483 | -18.89427 | 12.680 | 137.0 |
| 2026-02-21T14:40 | 8.75200 | -18.87278 | 11.201 | 136.9 |
| 2026-02-21T14:50 | 8.72999 | -18.85219 | 10.767 | 137.1 |
| 2026-02-21T15:00 | 8.70814 | -18.83164 | 10.719 | 136.9 |
| 2026-02-21T15:10 | 8.68624 | -18.81117 | 10.709 | 137.1 |
| 2026-02-21T15:20 | 8.66470 | -18.79098 | 10.549 | 137.0 |
| 2026-02-21T15:30 | 8.64288 | -18.77079 | 10.619 | 137.3 |
| 2026-02-21T15:40 | 8.62123 | -18.75049 | 10.606 | 137.0 |
| 2026-02-21T15:50 | 8.59962 | -18.73019 | 10.593 | 136.9 |
| 2026-02-21T16:00 | 8.57772 | -18.70961 | 10.739 | 136.9 |
| 2026-02-21T16:10 | 8.55698 | -18.68976 | 10.260 | 136.4 |
| 2026-02-21T16:20 | 8.53625 | -18.66940 | 10.382 | 135.7 |
| 2026-02-21T16:30 | 8.51484 | -18.64851 | 10.687 | 135.8 |
| 2026-02-21T16:40 | 8.49216 | -18.62620 | 11.367 | 135.6 |
| 2026-02-21T16:50 | 8.46950 | -18.60359 | 11.440 | 135.2 |
| 2026-02-21T17:00 | 8.44714 | -18.58113 | 11.325 | 135.0 |
| 2026-02-21T17:10 | 8.42482 | -18.55895 | 11.247 | 135.3 |
| 2026-02-21T17:20 | 8.40281 | -18.53741 | 11.004 | 135.7 |
| 2026-02-21T17:30 | 8.38120 | -18.51643 | 10.762 | 136.0 |
| 2026-02-21T17:40 | 8.35930 | -18.49524 | 10.895 | 136.1 |
| 2026-02-21T17:50 | 8.33744 | -18.47406 | 10.877 | 136.0 |
| 2026-02-21T18:00 | 8.31534 | -18.45266 | 10.995 | 136.1 |
| 2026-02-21T18:10 | 8.29297 | -18.43095 | 11.145 | 136.0 |
| 2026-02-21T18:20 | 8.27074 | -18.40948 | 11.044 | 136.1 |
| 2026-02-21T18:30 | 8.24840 | -18.38760 | 11.176 | 135.7 |
| 2026-02-21T18:40 | 8.22554 | -18.36632 | 11.167 | 137.2 |
| 2026-02-21T18:50 | 8.20284 | -18.34758 | 10.525 | 140.6 |
| 2026-02-21T19:00 | 8.20342 | -18.34381 | 1.361 | 81.2 |
| 2026-02-21T19:10 | 8.20342 | -18.34381 | 0.002 | 51.2 |
| 2026-02-21T19:20 | 8.20344 | -18.34383 | 0.011 | 298.4 |
| 2026-02-21T19:30 | 8.20344 | -18.34381 | 0.009 | 90.0 |
| 2026-02-21T19:40 | 8.20340 | -18.34379 | 0.015 | 152.3 |
| 2026-02-21T19:50 | 8.20339 | -18.34381 | 0.008 | 248.1 |
| 2026-02-21T20:00 | 8.20356 | -18.34367 | 0.078 | 38.4 |
| 2026-02-21T20:10 | 8.18814 | -18.32741 | 8.009 | 133.6 |
| 2026-02-21T20:20 | 8.16610 | -18.30627 | 10.919 | 136.3 |
| 2026-02-21T20:30 | 8.14422 | -18.28514 | 10.876 | 136.1 |
| 2026-02-21T20:40 | 8.12209 | -18.26410 | 10.913 | 136.6 |
| 2026-02-21T20:50 | 8.09989 | -18.24317 | 10.912 | 136.8 |
| 2026-02-21T21:00 | 8.07818 | -18.22304 | 10.584 | 137.3 |
| 2026-02-21T21:10 | 8.05630 | -18.20238 | 10.759 | 136.7 |
| 2026-02-21T21:20 | 8.03405 | -18.18157 | 10.893 | 137.0 |
| 2026-02-21T21:30 | 8.01218 | -18.16107 | 10.719 | 136.9 |
| 2026-02-21T21:40 | 7.99059 | -18.14089 | 10.568 | 137.0 |
| 2026-02-21T21:50 | 7.96885 | -18.12053 | 10.649 | 136.9 |
| 2026-02-21T22:00 | 7.94716 | -18.10000 | 10.681 | 136.7 |
| 2026-02-21T22:10 | 7.92576 | -18.07994 | 10.489 | 136.9 |
| 2026-02-21T22:20 | 7.90408 | -18.05970 | 10.607 | 137.1 |
| 2026-02-21T22:30 | 7.88261 | -18.03949 | 10.543 | 136.8 |
| 2026-02-21T22:40 | 7.86097 | -18.01849 | 10.786 | 135.9 |
| 2026-02-21T22:50 | 7.83903 | -17.99725 | 10.919 | 136.0 |
| 2026-02-21T23:00 | 7.81683 | -17.97563 | 11.082 | 135.8 |
| 2026-02-21T23:10 | 7.79467 | -17.95433 | 10.994 | 136.2 |
| 2026-02-21T23:20 | 7.77258 | -17.93285 | 11.016 | 135.9 |
| 2026-02-21T23:30 | 7.75043 | -17.91150 | 11.004 | 136.1 |
| 2026-02-21T23:40 | 7.72844 | -17.89027 | 10.933 | 136.1 |
| 2026-02-21T23:50 | 7.70651 | -17.86908 | 10.908 | 136.0 |
| 2026-02-22T00:00 | 7.68438 | -17.84765 | 11.019 | 136.0 |
| 2026-02-22T00:10 | 7.66218 | -17.82615 | 11.055 | 136.0 |
| 2026-02-22T00:20 | 7.64053 | -17.80526 | 10.758 | 136.1 |
| 2026-02-22T00:30 | 7.61912 | -17.78439 | 10.696 | 135.8 |
| 2026-02-22T00:40 | 7.59781 | -17.76373 | 10.620 | 135.9 |
| 2026-02-22T00:50 | 7.57663 | -17.74326 | 10.536 | 136.0 |
| 2026-02-22T01:00 | 7.55516 | -17.72252 | 10.680 | 136.1 |
| 2026-02-22T01:10 | 7.53373 | -17.70167 | 10.694 | 135.8 |
| 2026-02-22T01:20 | 7.51214 | -17.68081 | 10.741 | 136.1 |
| 2026-02-22T01:30 | 7.49037 | -17.65977 | 10.831 | 136.0 |
| 2026-02-22T01:40 | 7.46865 | -17.63877 | 10.808 | 136.0 |
| 2026-02-22T01:50 | 7.44659 | -17.61749 | 10.966 | 136.1 |
| 2026-02-22T02:00 | 7.42486 | -17.59642 | 10.829 | 135.9 |
| 2026-02-22T02:10 | 7.40306 | -17.57535 | 10.846 | 136.0 |
| 2026-02-22T02:20 | 7.38136 | -17.55449 | 10.772 | 136.2 |
| 2026-02-22T02:30 | 7.35941 | -17.53324 | 10.931 | 136.0 |
| 2026-02-22T02:40 | 7.33778 | -17.51240 | 10.749 | 136.1 |
| 2026-02-22T02:50 | 7.31605 | -17.49135 | 10.824 | 135.9 |
| 2026-02-22T03:00 | 7.30041 | -17.49249 | 5.618 | 184.2 |
| 2026-02-22T03:10 | 7.27822 | -17.47169 | 10.882 | 136.9 |
| 2026-02-22T03:20 | 7.25554 | -17.45060 | 11.082 | 137.1 |
| 2026-02-22T03:30 | 7.23278 | -17.42941 | 11.129 | 137.1 |
| 2026-02-22T03:40 | 7.21031 | -17.40836 | 11.018 | 136.9 |
| 2026-02-22T03:50 | 7.18783 | -17.38739 | 11.003 | 137.0 |
| 2026-02-22T04:00 | 7.16533 | -17.36644 | 11.004 | 137.1 |
| 2026-02-22T04:10 | 7.14271 | -17.34522 | 11.097 | 136.9 |
| 2026-02-22T04:20 | 7.11975 | -17.32392 | 11.210 | 137.2 |
| 2026-02-22T04:30 | 7.09732 | -17.30279 | 11.027 | 136.8 |
| 2026-02-22T04:40 | 7.07486 | -17.28189 | 10.984 | 137.1 |
| 2026-02-22T04:50 | 7.05206 | -17.26069 | 11.142 | 137.1 |
| 2026-02-22T05:00 | 7.02909 | -17.23930 | 11.235 | 137.1 |
| 2026-02-22T05:10 | 7.00675 | -17.21767 | 11.130 | 136.0 |
| 2026-02-22T05:20 | 6.98433 | -17.19609 | 11.136 | 136.1 |
| 2026-02-22T05:30 | 6.96193 | -17.17450 | 11.138 | 136.1 |
| 2026-02-22T05:40 | 6.93922 | -17.15253 | 11.312 | 136.0 |
| 2026-02-22T05:50 | 6.91675 | -17.13066 | 11.224 | 135.8 |
| 2026-02-22T06:00 | 6.89409 | -17.10891 | 11.242 | 136.2 |
| 2026-02-22T06:10 | 6.87157 | -17.08709 | 11.227 | 135.9 |
| 2026-02-22T06:20 | 6.84901 | -17.06522 | 11.247 | 135.9 |
| 2026-02-22T06:30 | 6.82616 | -17.04322 | 11.356 | 136.1 |
| 2026-02-22T06:40 | 6.80322 | -17.02106 | 11.421 | 136.0 |
| 2026-02-22T06:50 | 6.78008 | -16.99870 | 11.517 | 136.0 |
| 2026-02-22T07:00 | 6.75707 | -16.97653 | 11.439 | 136.1 |
| 2026-02-22T07:10 | 6.73449 | -16.95470 | 11.247 | 136.0 |
| 2026-02-22T07:20 | 6.71246 | -16.93336 | 10.982 | 135.9 |
| 2026-02-22T07:30 | 6.68997 | -16.91245 | 10.994 | 137.1 |
| 2026-02-22T07:40 | 6.66734 | -16.89132 | 11.083 | 137.0 |
| 2026-02-22T07:50 | 6.64481 | -16.87024 | 11.049 | 136.9 |
| 2026-02-22T08:00 | 6.62265 | -16.84958 | 10.849 | 137.0 |
| 2026-02-22T08:10 | 6.60044 | -16.82885 | 10.878 | 137.0 |
| 2026-02-22T08:20 | 6.57834 | -16.80829 | 10.809 | 137.1 |
| 2026-02-22T08:30 | 6.55642 | -16.78788 | 10.728 | 137.0 |
| 2026-02-22T08:40 | 6.53419 | -16.76722 | 10.866 | 137.1 |
| 2026-02-22T08:50 | 6.51187 | -16.74650 | 10.907 | 137.1 |
| 2026-02-22T09:00 | 6.48967 | -16.72571 | 10.894 | 136.9 |
| 2026-02-22T09:10 | 6.46710 | -16.70477 | 11.025 | 137.1 |
| 2026-02-22T09:20 | 6.44433 | -16.68359 | 11.136 | 137.1 |
| 2026-02-22T09:30 | 6.42156 | -16.66248 | 11.120 | 137.2 |
| 2026-02-22T09:40 | 6.39912 | -16.64153 | 10.993 | 137.0 |
| 2026-02-22T09:50 | 6.37688 | -16.62080 | 10.890 | 137.0 |
| 2026-02-22T10:00 | 6.35434 | -16.59979 | 11.035 | 137.0 |
| 2026-02-22T10:10 | 6.33194 | -16.57887 | 10.979 | 136.9 |
| 2026-02-22T10:20 | 6.30979 | -16.55823 | 10.846 | 137.0 |
| 2026-02-22T10:30 | 6.28753 | -16.53750 | 10.893 | 137.0 |
| 2026-02-22T10:40 | 6.26528 | -16.51653 | 10.954 | 136.7 |
| 2026-02-22T10:50 | 6.24296 | -16.49490 | 11.133 | 135.9 |
| 2026-02-22T11:00 | 6.22047 | -16.47307 | 11.227 | 135.8 |
| 2026-02-22T11:10 | 6.19797 | -16.45146 | 11.175 | 136.1 |
| 2026-02-22T11:20 | 6.17578 | -16.42984 | 11.097 | 135.7 |
| 2026-02-22T11:30 | 6.15344 | -16.40852 | 11.065 | 136.3 |
| 2026-02-22T11:40 | 6.13112 | -16.38766 | 10.943 | 136.9 |
| 2026-02-22T11:50 | 6.10884 | -16.36697 | 10.891 | 137.1 |
| 2026-02-22T12:00 | 6.08666 | -16.34634 | 10.853 | 137.1 |
| 2026-02-22T12:10 | 6.06448 | -16.32568 | 10.857 | 137.0 |
| 2026-02-22T12:20 | 6.04263 | -16.30522 | 10.725 | 136.9 |
| 2026-02-22T12:30 | 6.02056 | -16.28462 | 10.815 | 136.9 |
| 2026-02-22T12:40 | 5.99851 | -16.26409 | 10.793 | 137.0 |
| 2026-02-22T12:50 | 5.97626 | -16.24345 | 10.874 | 137.1 |
| 2026-02-22T13:00 | 5.95368 | -16.22243 | 11.053 | 137.0 |
| 2026-02-22T13:10 | 5.93101 | -16.20129 | 11.105 | 137.0 |
| 2026-02-22T13:20 | 5.90857 | -16.18051 | 10.958 | 137.2 |
| 2026-02-22T13:30 | 5.88667 | -16.16005 | 10.738 | 136.9 |
| 2026-02-22T13:40 | 5.86448 | -16.13936 | 10.870 | 137.0 |
| 2026-02-22T13:50 | 5.84233 | -16.11875 | 10.842 | 137.0 |
| 2026-02-22T14:00 | 5.82016 | -16.09810 | 10.857 | 137.0 |
| 2026-02-22T14:10 | 5.79798 | -16.07757 | 10.829 | 137.2 |
| 2026-02-22T14:20 | 5.77602 | -16.05704 | 10.771 | 136.9 |
| 2026-02-22T14:30 | 5.75400 | -16.03654 | 10.782 | 137.0 |
| 2026-02-22T14:40 | 5.73158 | -16.01578 | 10.950 | 137.2 |
| 2026-02-22T14:50 | 5.70920 | -15.99493 | 10.960 | 137.0 |
| 2026-02-22T15:00 | 5.68683 | -15.97399 | 10.979 | 136.8 |
| 2026-02-22T15:10 | 5.66430 | -15.95307 | 11.020 | 137.1 |
| 2026-02-22T15:20 | 5.64187 | -15.93216 | 10.988 | 137.0 |
| 2026-02-22T15:30 | 5.61931 | -15.91123 | 11.029 | 137.1 |
| 2026-02-22T15:40 | 5.59710 | -15.89051 | 10.886 | 136.9 |
| 2026-02-22T15:50 | 5.57480 | -15.87017 | 10.818 | 137.6 |
| 2026-02-22T16:00 | 5.55302 | -15.84940 | 10.785 | 136.3 |
| 2026-02-22T16:10 | 5.53147 | -15.82947 | 10.518 | 137.2 |
| 2026-02-22T16:20 | 5.51039 | -15.80987 | 10.317 | 137.0 |
| 2026-02-22T16:30 | 5.48932 | -15.79038 | 10.288 | 137.2 |
| 2026-02-22T16:40 | 5.46816 | -15.77059 | 10.384 | 136.8 |
| 2026-02-22T16:50 | 5.44693 | -15.75085 | 10.391 | 137.0 |
| 2026-02-22T17:00 | 5.42592 | -15.73129 | 10.290 | 137.0 |
| 2026-02-22T17:10 | 5.40468 | -15.71182 | 10.329 | 137.4 |
| 2026-02-22T17:20 | 5.38316 | -15.69184 | 10.524 | 137.1 |
| 2026-02-22T17:30 | 5.36150 | -15.67169 | 10.605 | 137.0 |
| 2026-02-22T17:40 | 5.33961 | -15.65131 | 10.721 | 137.0 |
| 2026-02-22T17:50 | 5.31792 | -15.63120 | 10.601 | 137.1 |
| 2026-02-22T18:00 | 5.29624 | -15.61084 | 10.664 | 136.7 |
| 2026-02-22T18:10 | 5.27449 | -15.59067 | 10.632 | 137.1 |
| 2026-02-22T18:20 | 5.25268 | -15.57043 | 10.667 | 137.1 |
| 2026-02-22T18:30 | 5.23136 | -15.55064 | 10.427 | 137.1 |
| 2026-02-22T18:40 | 5.20990 | -15.53075 | 10.490 | 137.1 |
| 2026-02-22T18:50 | 5.18858 | -15.51090 | 10.441 | 137.0 |
| 2026-02-22T19:00 | 5.16779 | -15.49156 | 10.181 | 137.0 |
| 2026-02-22T19:10 | 5.14655 | -15.47183 | 10.394 | 137.0 |
| 2026-02-22T19:20 | 5.12486 | -15.45173 | 10.598 | 137.1 |
| 2026-02-22T19:30 | 5.10309 | -15.43170 | 10.607 | 137.3 |
| 2026-02-22T19:40 | 5.08162 | -15.41169 | 10.524 | 136.9 |
| 2026-02-22T19:50 | 5.06109 | -15.39122 | 10.393 | 135.0 |
| 2026-02-22T20:00 | 5.04195 | -15.36932 | 10.433 | 131.1 |
| 2026-02-22T20:10 | 5.02348 | -15.34657 | 10.509 | 129.0 |
| 2026-02-22T20:20 | 5.00513 | -15.32397 | 10.442 | 129.0 |
| 2026-02-22T20:30 | 4.98700 | -15.30105 | 10.482 | 128.3 |
| 2026-02-22T20:40 | 4.96962 | -15.27801 | 10.353 | 126.9 |
| 2026-02-22T20:50 | 4.95233 | -15.25513 | 10.288 | 127.0 |
| 2026-02-22T21:00 | 4.93566 | -15.23141 | 10.402 | 125.0 |
| 2026-02-22T21:10 | 4.91906 | -15.20775 | 10.368 | 125.0 |
| 2026-02-22T21:20 | 4.90239 | -15.18405 | 10.396 | 125.1 |
| 2026-02-22T21:30 | 4.88567 | -15.16024 | 10.440 | 125.0 |
| 2026-02-22T21:40 | 4.86932 | -15.13679 | 10.255 | 124.8 |
| 2026-02-22T21:50 | 4.85337 | -15.11322 | 10.210 | 124.0 |
| 2026-02-22T22:00 | 4.83724 | -15.08924 | 10.371 | 123.8 |
| 2026-02-22T22:10 | 4.82080 | -15.06485 | 10.553 | 123.9 |
| 2026-02-22T22:20 | 4.80430 | -15.04016 | 10.659 | 123.7 |
| 2026-02-22T22:30 | 4.78773 | -15.01569 | 10.603 | 124.0 |
| 2026-02-22T22:40 | 4.77093 | -14.99103 | 10.710 | 124.2 |
| 2026-02-22T22:50 | 4.75433 | -14.96638 | 10.663 | 123.9 |
| 2026-02-22T23:00 | 4.73757 | -14.94168 | 10.712 | 124.1 |
| 2026-02-22T23:10 | 4.72077 | -14.91681 | 10.772 | 124.0 |
| 2026-02-22T23:20 | 4.70371 | -14.89176 | 10.874 | 124.2 |
| 2026-02-22T23:30 | 4.68664 | -14.86647 | 10.951 | 123.9 |
| 2026-02-22T23:40 | 4.66957 | -14.84131 | 10.911 | 124.1 |
| 2026-02-22T23:50 | 4.65248 | -14.81603 | 10.951 | 124.0 |
| 2026-02-23T00:00 | 4.63564 | -14.79114 | 10.784 | 124.0 |
| 2026-02-23T00:10 | 4.61889 | -14.76627 | 10.761 | 123.9 |
| 2026-02-23T00:20 | 4.60199 | -14.74131 | 10.821 | 124.0 |
| 2026-02-23T00:30 | 4.58510 | -14.71641 | 10.798 | 124.1 |
| 2026-02-23T00:40 | 4.56839 | -14.69168 | 10.714 | 124.0 |
| 2026-02-23T00:50 | 4.55123 | -14.66643 | 10.955 | 124.1 |
| 2026-02-23T01:00 | 4.53433 | -14.64133 | 10.863 | 123.8 |
| 2026-02-23T01:10 | 4.51759 | -14.61668 | 10.695 | 124.1 |
| 2026-02-23T01:20 | 4.50075 | -14.59172 | 10.808 | 123.9 |
| 2026-02-23T01:30 | 4.48367 | -14.56652 | 10.929 | 124.0 |
| 2026-02-23T01:40 | 4.46668 | -14.54144 | 10.872 | 124.0 |
| 2026-02-23T01:50 | 4.44965 | -14.51630 | 10.900 | 124.0 |
| 2026-02-23T02:00 | 4.43266 | -14.49112 | 10.905 | 123.9 |
| 2026-02-23T02:10 | 4.41559 | -14.46596 | 10.915 | 124.1 |
| 2026-02-23T02:20 | 4.39825 | -14.44036 | 11.097 | 124.0 |
| 2026-02-23T02:30 | 4.38094 | -14.41471 | 11.108 | 123.9 |
| 2026-02-23T02:40 | 4.36369 | -14.38941 | 10.991 | 124.2 |
| 2026-02-23T02:50 | 4.34660 | -14.36401 | 10.992 | 123.8 |
| 2026-02-23T03:00 | 4.32930 | -14.33848 | 11.074 | 124.0 |
| 2026-02-23T03:10 | 4.31196 | -14.31299 | 11.065 | 124.1 |
| 2026-02-23T03:20 | 4.29500 | -14.28779 | 10.907 | 123.8 |
| 2026-02-23T03:30 | 4.27804 | -14.26208 | 11.057 | 123.3 |
| 2026-02-23T03:40 | 4.26131 | -14.23641 | 11.001 | 123.0 |
| 2026-02-23T03:50 | 4.24455 | -14.21069 | 11.023 | 123.0 |
| 2026-02-23T04:00 | 4.22773 | -14.18494 | 11.042 | 123.0 |
| 2026-02-23T04:10 | 4.21084 | -14.15909 | 11.087 | 123.1 |
| 2026-02-23T04:20 | 4.19404 | -14.13327 | 11.061 | 122.9 |
| 2026-02-23T04:30 | 4.17717 | -14.10744 | 11.079 | 123.0 |
| 2026-02-23T04:40 | 4.16054 | -14.08187 | 10.953 | 122.9 |
| 2026-02-23T04:50 | 4.14386 | -14.05624 | 10.978 | 122.9 |
| 2026-02-23T05:00 | 4.12722 | -14.03081 | 10.914 | 123.1 |
| 2026-02-23T05:10 | 4.11055 | -14.00518 | 10.980 | 122.9 |
| 2026-02-23T05:20 | 4.09378 | -13.97953 | 11.003 | 123.1 |
| 2026-02-23T05:30 | 4.07711 | -13.95389 | 10.986 | 122.9 |
| 2026-02-23T05:40 | 4.06033 | -13.92811 | 11.044 | 123.0 |
| 2026-02-23T05:50 | 4.04341 | -13.90215 | 11.129 | 123.0 |
| 2026-02-23T06:00 | 4.02624 | -13.87579 | 11.298 | 123.0 |
| 2026-02-23T06:10 | 4.00887 | -13.84930 | 11.373 | 123.1 |
| 2026-02-23T06:20 | 3.99168 | -13.82277 | 11.354 | 122.8 |
| 2026-02-23T06:30 | 3.97437 | -13.79623 | 11.380 | 123.0 |
| 2026-02-23T06:40 | 3.95734 | -13.77015 | 11.186 | 123.0 |
| 2026-02-23T06:50 | 3.94034 | -13.74406 | 11.184 | 123.0 |
| 2026-02-23T07:00 | 3.92334 | -13.71813 | 11.134 | 123.1 |
| 2026-02-23T07:10 | 3.90641 | -13.69207 | 11.161 | 122.9 |
| 2026-02-23T07:20 | 3.88944 | -13.66606 | 11.157 | 123.0 |
| 2026-02-23T07:30 | 3.87252 | -13.64017 | 11.106 | 123.1 |
| 2026-02-23T07:40 | 3.85566 | -13.61433 | 11.083 | 123.0 |
| 2026-02-23T07:50 | 3.83859 | -13.58816 | 11.220 | 123.0 |
| 2026-02-23T08:00 | 3.82136 | -13.56165 | 11.359 | 122.9 |
| 2026-02-23T08:10 | 3.80401 | -13.53519 | 11.365 | 123.1 |
| 2026-02-23T08:20 | 3.78659 | -13.50852 | 11.442 | 123.0 |
| 2026-02-23T08:30 | 3.76936 | -13.48208 | 11.334 | 123.0 |
| 2026-02-23T08:40 | 3.75224 | -13.45574 | 11.286 | 122.9 |
| 2026-02-23T08:50 | 3.73518 | -13.42956 | 11.223 | 123.0 |
| 2026-02-23T09:00 | 3.71806 | -13.40325 | 11.275 | 122.9 |
| 2026-02-23T09:10 | 3.70084 | -13.37694 | 11.295 | 123.1 |
| 2026-02-23T09:20 | 3.68365 | -13.35059 | 11.301 | 123.0 |
| 2026-02-23T09:30 | 3.66651 | -13.32430 | 11.275 | 123.0 |
| 2026-02-23T09:40 | 3.64947 | -13.29816 | 11.209 | 123.0 |
| 2026-02-23T09:50 | 3.63254 | -13.27214 | 11.152 | 122.9 |
| 2026-02-23T10:00 | 3.61555 | -13.24617 | 11.146 | 123.1 |
| 2026-02-23T10:10 | 3.59876 | -13.22041 | 11.046 | 123.0 |
| 2026-02-23T10:20 | 3.58191 | -13.19450 | 11.104 | 122.9 |
| 2026-02-23T10:30 | 3.56484 | -13.16852 | 11.167 | 123.2 |
| 2026-02-23T10:40 | 3.54758 | -13.14207 | 11.349 | 123.0 |
| 2026-02-23T10:50 | 3.53017 | -13.11535 | 11.457 | 123.0 |
| 2026-02-23T11:00 | 3.51269 | -13.08858 | 11.485 | 123.0 |
| 2026-02-23T11:10 | 3.49539 | -13.06207 | 11.373 | 123.0 |
| 2026-02-23T11:20 | 3.47812 | -13.03555 | 11.371 | 122.9 |
| 2026-02-23T11:30 | 3.46071 | -13.00891 | 11.431 | 123.0 |
| 2026-02-23T11:40 | 3.44348 | -12.98241 | 11.359 | 122.9 |
| 2026-02-23T11:50 | 3.42611 | -12.95577 | 11.424 | 123.0 |
| 2026-02-23T12:00 | 3.40878 | -12.92929 | 11.372 | 123.1 |
| 2026-02-23T12:10 | 3.39150 | -12.90272 | 11.389 | 122.9 |
| 2026-02-23T12:20 | 3.37426 | -12.87632 | 11.326 | 123.0 |
| 2026-02-23T12:30 | 3.35706 | -12.84990 | 11.330 | 122.9 |
| 2026-02-23T12:40 | 3.33984 | -12.82364 | 11.282 | 123.1 |
| 2026-02-23T12:50 | 3.32246 | -12.79711 | 11.397 | 123.1 |
| 2026-02-23T13:00 | 3.30514 | -12.77031 | 11.465 | 122.7 |
| 2026-02-23T13:10 | 3.28773 | -12.74376 | 11.406 | 123.1 |
| 2026-02-23T13:20 | 3.27028 | -12.71712 | 11.444 | 123.1 |
| 2026-02-23T13:30 | 3.25295 | -12.69053 | 11.403 | 123.0 |
| 2026-02-23T13:40 | 3.23563 | -12.66393 | 11.410 | 122.9 |
| 2026-02-23T13:50 | 3.21822 | -12.63725 | 11.445 | 123.0 |
| 2026-02-23T14:00 | 3.20090 | -12.61063 | 11.412 | 122.9 |
| 2026-02-23T14:10 | 3.18341 | -12.58382 | 11.503 | 123.0 |
| 2026-02-23T14:20 | 3.16594 | -12.55701 | 11.498 | 123.0 |
| 2026-02-23T14:30 | 3.14854 | -12.53049 | 11.400 | 123.1 |
| 2026-02-23T14:40 | 3.13133 | -12.50419 | 11.293 | 123.1 |
| 2026-02-23T14:50 | 3.11420 | -12.47781 | 11.305 | 122.9 |
| 2026-02-23T15:00 | 3.09687 | -12.45139 | 11.355 | 123.1 |
| 2026-02-23T15:10 | 3.07990 | -12.42524 | 11.200 | 122.8 |
| 2026-02-23T15:20 | 3.06278 | -12.39926 | 11.181 | 123.2 |
| 2026-02-23T15:30 | 3.04566 | -12.37296 | 11.279 | 122.9 |
| 2026-02-23T15:40 | 3.02878 | -12.34688 | 11.165 | 122.8 |
| 2026-02-23T15:50 | 3.01162 | -12.32065 | 11.265 | 123.0 |
| 2026-02-23T16:00 | 2.99433 | -12.29432 | 11.320 | 123.1 |
| 2026-02-23T16:10 | 2.97720 | -12.26792 | 11.311 | 122.8 |
| 2026-02-23T16:20 | 2.95973 | -12.24110 | 11.503 | 122.9 |
| 2026-02-23T16:30 | 2.94240 | -12.21467 | 11.359 | 123.1 |
| 2026-02-23T16:40 | 2.92527 | -12.18843 | 11.263 | 123.0 |
| 2026-02-23T16:50 | 2.90822 | -12.16222 | 11.239 | 122.9 |
| 2026-02-23T17:00 | 2.89143 | -12.13648 | 11.044 | 123.0 |
| 2026-02-23T17:10 | 2.87464 | -12.11082 | 11.021 | 123.1 |
| 2026-02-23T17:20 | 2.85762 | -12.08480 | 11.179 | 123.0 |
| 2026-02-23T17:30 | 2.84063 | -12.05871 | 11.188 | 122.9 |
| 2026-02-23T17:40 | 2.82387 | -12.03308 | 11.009 | 123.0 |
| 2026-02-23T17:50 | 2.80742 | -12.00757 | 10.909 | 122.7 |
| 2026-02-23T18:00 | 2.79068 | -11.98207 | 10.963 | 123.1 |
| 2026-02-23T18:10 | 2.77395 | -11.95642 | 11.008 | 123.0 |
| 2026-02-23T18:20 | 2.75730 | -11.93084 | 10.971 | 122.9 |
| 2026-02-23T18:30 | 2.74098 | -11.90594 | 10.702 | 123.1 |
| 2026-02-23T18:40 | 2.72459 | -11.88070 | 10.818 | 122.8 |
| 2026-02-23T18:50 | 2.70795 | -11.85533 | 10.905 | 123.1 |
| 2026-02-23T19:00 | 2.69143 | -11.82989 | 10.905 | 122.8 |
| 2026-02-23T19:10 | 2.67476 | -11.80445 | 10.932 | 123.1 |
| 2026-02-23T19:20 | 2.65821 | -11.77892 | 10.938 | 122.8 |
| 2026-02-23T19:30 | 2.64138 | -11.75325 | 11.034 | 123.1 |
| 2026-02-23T19:40 | 2.62491 | -11.72789 | 10.870 | 122.9 |
| 2026-02-23T19:50 | 2.60859 | -11.70263 | 10.811 | 122.7 |
| 2026-02-23T20:00 | 2.59205 | -11.67733 | 10.865 | 123.0 |
| 2026-02-23T20:10 | 2.57547 | -11.65187 | 10.921 | 122.9 |
| 2026-02-23T20:20 | 2.55886 | -11.62652 | 10.897 | 123.1 |
| 2026-02-23T20:30 | 2.54228 | -11.60111 | 10.906 | 123.0 |
| 2026-02-23T20:40 | 2.52536 | -11.57554 | 11.020 | 123.3 |
| 2026-02-23T20:50 | 2.50815 | -11.55000 | 11.071 | 123.8 |
| 2026-02-23T21:00 | 2.49102 | -11.52476 | 10.965 | 124.0 |
| 2026-02-23T21:10 | 2.47378 | -11.49942 | 11.017 | 124.1 |
| 2026-02-23T21:20 | 2.45662 | -11.47402 | 11.019 | 123.9 |
| 2026-02-23T21:30 | 2.43952 | -11.44869 | 10.986 | 123.9 |
| 2026-02-23T21:40 | 2.42237 | -11.42355 | 10.939 | 124.1 |
| 2026-02-23T21:50 | 2.40545 | -11.39860 | 10.840 | 124.0 |
| 2026-02-23T22:00 | 2.38855 | -11.37361 | 10.844 | 123.9 |
| 2026-02-23T22:10 | 2.37177 | -11.34891 | 10.733 | 124.0 |
| 2026-02-23T22:20 | 2.35493 | -11.32411 | 10.778 | 124.0 |
| 2026-02-23T22:30 | 2.33815 | -11.29943 | 10.727 | 124.1 |
| 2026-02-23T22:40 | 2.32130 | -11.27451 | 10.814 | 123.9 |
| 2026-02-23T22:50 | 2.30469 | -11.24952 | 10.790 | 123.5 |
| 2026-02-23T23:00 | 2.28820 | -11.22413 | 10.884 | 122.8 |
| 2026-02-23T23:10 | 2.27183 | -11.19904 | 10.769 | 123.0 |
| 2026-02-23T23:20 | 2.25549 | -11.17410 | 10.723 | 123.1 |
| 2026-02-23T23:30 | 2.23909 | -11.14891 | 10.806 | 122.9 |
| 2026-02-23T23:40 | 2.22252 | -11.12356 | 10.887 | 123.0 |
| 2026-02-23T23:50 | 2.20610 | -11.09843 | 10.792 | 123.0 |
| 2026-02-24T00:00 | 2.18954 | -11.07312 | 10.876 | 123.0 |
| 2026-02-24T00:10 | 2.17309 | -11.04781 | 10.855 | 122.8 |
| 2026-02-24T00:20 | 2.15645 | -11.02230 | 10.949 | 123.0 |
| 2026-02-24T00:30 | 2.13968 | -10.99658 | 11.042 | 123.0 |
| 2026-02-24T00:40 | 2.12276 | -10.97072 | 11.110 | 123.0 |
| 2026-02-24T00:50 | 2.10594 | -10.94489 | 11.084 | 122.9 |
| 2026-02-24T01:00 | 2.08922 | -10.91936 | 10.974 | 123.1 |
| 2026-02-24T01:10 | 2.07266 | -10.89405 | 10.874 | 123.0 |
| 2026-02-24T01:20 | 2.05623 | -10.86880 | 10.832 | 122.9 |
| 2026-02-24T01:30 | 2.03970 | -10.84362 | 10.830 | 123.1 |
| 2026-02-24T01:40 | 2.02311 | -10.81820 | 10.915 | 123.0 |
| 2026-02-24T01:50 | 2.00675 | -10.79308 | 10.780 | 122.9 |
| 2026-02-24T02:00 | 1.99036 | -10.76792 | 10.796 | 122.9 |
| 2026-02-24T02:10 | 1.97403 | -10.74293 | 10.738 | 123.0 |
| 2026-02-24T02:20 | 1.95768 | -10.71780 | 10.777 | 122.9 |
| 2026-02-24T02:30 | 1.94143 | -10.69281 | 10.721 | 122.9 |
| 2026-02-24T02:40 | 1.92525 | -10.66794 | 10.668 | 122.9 |
| 2026-02-24T02:50 | 1.90898 | -10.64327 | 10.628 | 123.2 |
| 2026-02-24T03:00 | 1.89305 | -10.61867 | 10.535 | 122.8 |
| 2026-02-24T03:10 | 1.87710 | -10.59425 | 10.490 | 123.0 |
| 2026-02-24T03:20 | 1.86114 | -10.56997 | 10.450 | 123.2 |
| 2026-02-24T03:30 | 1.84530 | -10.54576 | 10.402 | 123.0 |
| 2026-02-24T03:40 | 1.82953 | -10.52153 | 10.398 | 122.9 |
| 2026-02-24T03:50 | 1.81374 | -10.49748 | 10.347 | 123.1 |
| 2026-02-24T04:00 | 1.79798 | -10.47338 | 10.356 | 123.0 |
| 2026-02-24T04:10 | 1.78237 | -10.44953 | 10.247 | 123.0 |
| 2026-02-24T04:20 | 1.76678 | -10.42564 | 10.261 | 123.0 |
| 2026-02-24T04:30 | 1.75112 | -10.40180 | 10.256 | 123.1 |
| 2026-02-24T04:40 | 1.73536 | -10.37765 | 10.370 | 123.0 |
| 2026-02-24T04:50 | 1.71957 | -10.35341 | 10.406 | 122.9 |
| 2026-02-24T05:00 | 1.70369 | -10.32906 | 10.452 | 123.0 |
| 2026-02-24T05:10 | 1.68782 | -10.30471 | 10.454 | 122.9 |
| 2026-02-24T05:20 | 1.67199 | -10.28050 | 10.403 | 123.0 |
| 2026-02-24T05:30 | 1.65625 | -10.25637 | 10.359 | 123.0 |
| 2026-02-24T05:40 | 1.64060 | -10.23246 | 10.275 | 123.0 |
| 2026-02-24T05:50 | 1.62476 | -10.20835 | 10.375 | 123.1 |
| 2026-02-24T06:00 | 1.60889 | -10.18390 | 10.484 | 122.8 |
| 2026-02-24T06:10 | 1.59290 | -10.15957 | 10.471 | 123.2 |
| 2026-02-24T06:20 | 1.57692 | -10.13519 | 10.481 | 123.1 |
| 2026-02-24T06:30 | 1.56125 | -10.11108 | 10.342 | 122.8 |
| 2026-02-24T06:40 | 1.54548 | -10.08703 | 10.344 | 123.1 |
| 2026-02-24T06:50 | 1.52978 | -10.06300 | 10.323 | 123.0 |
| 2026-02-24T07:00 | 1.51416 | -10.03905 | 10.284 | 122.9 |
| 2026-02-24T07:10 | 1.49868 | -10.01540 | 10.165 | 123.0 |
| 2026-02-24T07:20 | 1.48329 | -9.99180 | 10.131 | 122.9 |
| 2026-02-24T07:30 | 1.46782 | -9.96819 | 10.153 | 123.1 |
| 2026-02-24T07:40 | 1.45232 | -9.94437 | 10.222 | 122.9 |
| 2026-02-24T07:50 | 1.43693 | -9.92036 | 10.257 | 122.5 |
| 2026-02-24T08:00 | 1.42094 | -9.89619 | 10.422 | 123.3 |
| 2026-02-24T08:10 | 1.40536 | -9.87247 | 10.207 | 123.1 |
| 2026-02-24T08:20 | 1.38995 | -9.84910 | 10.067 | 123.2 |
| 2026-02-24T08:30 | 1.37473 | -9.82553 | 10.093 | 122.7 |
| 2026-02-24T08:40 | 1.35951 | -9.80242 | 9.951 | 123.2 |
| 2026-02-24T08:50 | 1.34419 | -9.77902 | 10.058 | 123.0 |
| 2026-02-24T09:00 | 1.32892 | -9.75536 | 10.130 | 122.7 |
| 2026-02-24T09:10 | 1.31365 | -9.73197 | 10.045 | 123.0 |
| 2026-02-24T09:20 | 1.29831 | -9.70858 | 10.060 | 123.1 |
| 2026-02-24T09:30 | 1.28321 | -9.68542 | 9.944 | 122.9 |
| 2026-02-24T09:40 | 1.26784 | -9.66191 | 10.103 | 123.0 |
| 2026-02-24T09:50 | 1.25230 | -9.63805 | 10.241 | 122.9 |
| 2026-02-24T10:00 | 1.23680 | -9.61436 | 10.183 | 123.0 |
| 2026-02-24T10:10 | 1.22143 | -9.59108 | 10.033 | 123.3 |
| 2026-02-24T10:20 | 1.20615 | -9.56871 | 9.743 | 124.1 |
| 2026-02-24T10:30 | 1.19117 | -9.54656 | 9.617 | 123.9 |
| 2026-02-24T10:40 | 1.17593 | -9.52403 | 9.782 | 123.9 |
| 2026-02-24T10:50 | 1.16031 | -9.50098 | 10.013 | 124.0 |
| 2026-02-24T11:00 | 1.14464 | -9.47797 | 10.011 | 124.1 |
| 2026-02-24T11:10 | 1.12897 | -9.45487 | 10.039 | 124.0 |
| 2026-02-24T11:20 | 1.11348 | -9.43193 | 9.957 | 123.8 |
| 2026-02-24T11:30 | 1.09779 | -9.40876 | 10.065 | 123.9 |
| 2026-02-24T11:40 | 1.08179 | -9.38535 | 10.195 | 124.2 |
| 2026-02-24T11:50 | 1.06604 | -9.36203 | 10.124 | 123.9 |
| 2026-02-24T12:00 | 1.05038 | -9.33861 | 10.130 | 123.6 |
| 2026-02-24T12:10 | 1.03619 | -9.31443 | 10.088 | 120.2 |
| 2026-02-24T12:20 | 1.02209 | -9.29017 | 10.096 | 120.0 |
| 2026-02-24T12:30 | 1.00800 | -9.26598 | 10.074 | 120.1 |
| 2026-02-24T12:40 | 0.99408 | -9.24195 | 9.989 | 119.9 |
| 2026-02-24T12:50 | 0.98009 | -9.21778 | 10.050 | 119.9 |
| 2026-02-24T13:00 | 0.96640 | -9.19410 | 9.843 | 119.9 |
| 2026-02-24T13:10 | 0.95244 | -9.17006 | 10.004 | 120.0 |
| 2026-02-24T13:20 | 0.93859 | -9.14612 | 9.948 | 119.9 |
| 2026-02-24T13:30 | 0.92442 | -9.12184 | 10.117 | 120.1 |
| 2026-02-24T13:40 | 0.91008 | -9.09725 | 10.243 | 120.1 |
| 2026-02-24T13:50 | 0.89583 | -9.07268 | 10.217 | 120.0 |
| 2026-02-24T14:00 | 0.88161 | -9.04818 | 10.195 | 120.0 |
| 2026-02-24T14:10 | 0.86748 | -9.02406 | 10.057 | 120.2 |
| 2026-02-24T14:20 | 0.85317 | -8.99937 | 10.268 | 119.9 |
| 2026-02-24T14:30 | 0.83876 | -8.97463 | 10.302 | 120.1 |
| 2026-02-24T14:40 | 0.82433 | -8.94975 | 10.349 | 119.9 |
| 2026-02-24T14:50 | 0.80992 | -8.92504 | 10.290 | 120.1 |
| 2026-02-24T15:00 | 0.79561 | -8.90007 | 10.357 | 119.7 |
| 2026-02-24T15:10 | 0.78082 | -8.87495 | 10.490 | 120.3 |
| 2026-02-24T15:20 | 0.76633 | -8.84984 | 10.432 | 119.8 |
| 2026-02-24T15:30 | 0.75156 | -8.82469 | 10.494 | 120.2 |
| 2026-02-24T15:40 | 0.73693 | -8.79935 | 10.528 | 119.9 |
| 2026-02-24T15:50 | 0.72234 | -8.77439 | 10.405 | 120.1 |
| 2026-02-24T16:00 | 0.70796 | -8.74964 | 10.297 | 120.0 |
| 2026-02-24T16:10 | 0.69313 | -8.72506 | 10.328 | 120.9 |
| 2026-02-24T16:20 | 0.67836 | -8.70057 | 10.289 | 120.9 |
| 2026-02-24T16:30 | 0.66348 | -8.67602 | 10.329 | 121.0 |
| 2026-02-24T16:40 | 0.64845 | -8.65119 | 10.444 | 121.0 |
| 2026-02-24T16:50 | 0.63345 | -8.62622 | 10.479 | 120.8 |
| 2026-02-24T17:00 | 0.61839 | -8.60133 | 10.469 | 121.0 |
| 2026-02-24T17:10 | 0.60332 | -8.57648 | 10.458 | 121.1 |
| 2026-02-24T17:20 | 0.58812 | -8.55138 | 10.555 | 121.0 |
| 2026-02-24T17:30 | 0.57319 | -8.52649 | 10.442 | 120.8 |
| 2026-02-24T17:40 | 0.55854 | -8.50190 | 10.299 | 120.6 |
| 2026-02-24T17:50 | 0.54442 | -8.47750 | 10.144 | 119.9 |
| 2026-02-24T18:00 | 0.53030 | -8.45327 | 10.092 | 120.0 |
| 2026-02-24T18:10 | 0.51619 | -8.42893 | 10.124 | 120.0 |
| 2026-02-24T18:20 | 0.50191 | -8.40430 | 10.244 | 119.9 |
| 2026-02-24T18:30 | 0.48758 | -8.37974 | 10.229 | 120.1 |
| 2026-02-24T18:40 | 0.47345 | -8.35530 | 10.162 | 119.9 |
| 2026-02-24T18:50 | 0.45919 | -8.33080 | 10.198 | 120.0 |
| 2026-02-24T19:00 | 0.44498 | -8.30630 | 10.193 | 120.0 |
| 2026-02-24T19:10 | 0.43070 | -8.28161 | 10.264 | 119.9 |
| 2026-02-24T19:20 | 0.41646 | -8.25719 | 10.172 | 120.1 |
| 2026-02-24T19:30 | 0.40237 | -8.23305 | 10.058 | 120.1 |
| 2026-02-24T19:40 | 0.38861 | -8.20933 | 9.869 | 119.9 |
| 2026-02-24T19:50 | 0.37496 | -8.18585 | 9.774 | 120.0 |
| 2026-02-24T20:00 | 0.36145 | -8.16251 | 9.704 | 119.9 |
| 2026-02-24T20:10 | 0.34835 | -8.13905 | 9.669 | 119.0 |
| 2026-02-24T20:20 | 0.33544 | -8.11606 | 9.488 | 119.2 |
| 2026-02-24T20:30 | 0.32166 | -8.09321 | 9.599 | 120.9 |
| 2026-02-24T20:40 | 0.30884 | -8.06934 | 9.753 | 118.1 |
| 2026-02-24T20:50 | 0.29543 | -8.04599 | 9.689 | 119.7 |
| 2026-02-24T21:00 | 0.28233 | -8.02188 | 9.876 | 118.3 |
| 2026-02-24T21:10 | 0.26780 | -7.99829 | 9.970 | 121.5 |
| 2026-02-24T21:20 | 0.25456 | -7.97438 | 9.834 | 118.8 |
| 2026-02-24T21:30 | 0.24076 | -7.95054 | 9.913 | 119.9 |
| 2026-02-24T21:40 | 0.22644 | -7.92664 | 10.024 | 120.8 |
| 2026-02-24T21:50 | 0.21268 | -7.90278 | 9.911 | 119.8 |
| 2026-02-24T22:00 | 0.19912 | -7.87910 | 9.821 | 119.6 |
| 2026-02-24T22:10 | 0.18553 | -7.85560 | 9.769 | 119.9 |
| 2026-02-24T22:20 | 0.17190 | -7.83201 | 9.802 | 119.8 |
| 2026-02-24T22:30 | 0.15800 | -7.80859 | 9.801 | 120.5 |
| 2026-02-24T22:40 | 0.14431 | -7.78512 | 9.777 | 120.1 |
| 2026-02-24T22:50 | 0.13125 | -7.76110 | 9.840 | 118.4 |
| 2026-02-24T23:00 | 0.11878 | -7.73678 | 9.838 | 117.0 |
| 2026-02-24T23:10 | 0.10564 | -7.71310 | 9.747 | 118.9 |
| 2026-02-24T23:20 | 0.09140 | -7.68977 | 9.834 | 121.2 |
| 2026-02-24T23:30 | 0.07755 | -7.66569 | 9.995 | 119.8 |
| 2026-02-24T23:40 | 0.06430 | -7.64157 | 9.906 | 118.6 |
| 2026-02-24T23:50 | 0.05025 | -7.61810 | 9.842 | 120.7 |
| 2026-02-25T00:00 | 0.03624 | -7.59478 | 9.790 | 120.8 |
| 2026-02-25T00:10 | 0.02210 | -7.57227 | 9.564 | 122.0 |
| 2026-02-25T00:20 | 0.00555 | -7.55147 | 9.555 | 128.3 |
| 2026-02-25T00:30 | 0.00152 | -7.54543 | 2.613 | 123.5 |
| 2026-02-25T00:40 | 0.00015 | -7.54565 | 0.496 | 189.0 |
| 2026-02-25T00:50 | 0.00004 | -7.54558 | 0.047 | 147.6 |
| 2026-02-25T01:00 | 0.00051 | -7.54530 | 0.195 | 30.0 |
| 2026-02-25T01:10 | 0.00048 | -7.54532 | 0.011 | 205.9 |
| 2026-02-25T01:20 | 0.00048 | -7.54532 | 0.001 | 256.1 |
| 2026-02-25T01:30 | 0.00047 | -7.54533 | 0.003 | 220.0 |
| 2026-02-25T01:40 | 0.00047 | -7.54532 | 0.002 | 161.4 |
| 2026-02-25T01:50 | 0.00047 | -7.54532 | 0.001 | 0.0 |
| 2026-02-25T02:00 | 0.00048 | -7.54533 | 0.002 | 322.9 |
| 2026-02-25T02:10 | 0.00048 | -7.54532 | 0.004 | 37.0 |
| 2026-02-25T02:20 | 0.00104 | -7.54517 | 0.205 | 15.1 |
| 2026-02-25T02:30 | 0.00102 | -7.54518 | 0.006 | 199.6 |
| 2026-02-25T02:40 | 0.00101 | -7.54518 | 0.004 | 180.0 |
| 2026-02-25T02:50 | 0.00174 | -7.54498 | 0.270 | 15.2 |
| 2026-02-25T03:00 | 0.00208 | -7.54490 | 0.126 | 12.9 |
| 2026-02-25T03:10 | 0.00208 | -7.54490 | 0.002 | 37.0 |
| 2026-02-25T03:20 | 0.00236 | -7.54484 | 0.103 | 13.1 |
| 2026-02-25T03:30 | 0.00339 | -7.54431 | 0.414 | 27.5 |
| 2026-02-25T03:40 | 0.00036 | -7.53510 | 3.490 | 108.1 |
| 2026-02-25T03:50 | -0.01385 | -7.51141 | 9.940 | 120.8 |
| 2026-02-25T04:00 | -0.02766 | -7.48736 | 9.979 | 119.7 |
| 2026-02-25T04:10 | -0.04155 | -7.46371 | 9.870 | 120.2 |
| 2026-02-25T04:20 | -0.05613 | -7.44020 | 9.952 | 121.6 |
| 2026-02-25T04:30 | -0.07098 | -7.41661 | 10.029 | 122.0 |
| 2026-02-25T04:40 | -0.08559 | -7.39311 | 9.956 | 121.7 |
| 2026-02-25T04:50 | -0.09947 | -7.36953 | 9.846 | 120.3 |
| 2026-02-25T05:00 | -0.11365 | -7.34580 | 9.947 | 120.7 |
| 2026-02-25T05:10 | -0.12746 | -7.32277 | 9.662 | 120.8 |
| 2026-02-25T05:20 | -0.14143 | -7.29963 | 9.726 | 121.0 |
| 2026-02-25T05:30 | -0.15495 | -7.27641 | 9.669 | 120.0 |
| 2026-02-25T05:40 | -0.16887 | -7.25309 | 9.772 | 120.7 |
| 2026-02-25T05:50 | -0.18290 | -7.22971 | 9.809 | 120.8 |
| 2026-02-25T06:00 | -0.19668 | -7.20602 | 9.861 | 120.0 |
| 2026-02-25T06:10 | -0.21064 | -7.18277 | 9.761 | 120.8 |
| 2026-02-25T06:20 | -0.22478 | -7.15942 | 9.822 | 121.0 |
| 2026-02-25T06:30 | -0.23871 | -7.13632 | 9.705 | 120.9 |
| 2026-02-25T06:40 | -0.25277 | -7.11314 | 9.754 | 121.1 |
| 2026-02-25T06:50 | -0.26705 | -7.08953 | 9.927 | 121.0 |
| 2026-02-25T07:00 | -0.28149 | -7.06563 | 10.049 | 121.0 |
| 2026-02-25T07:10 | -0.29600 | -7.04171 | 10.062 | 121.1 |
| 2026-02-25T07:20 | -0.31030 | -7.01803 | 9.955 | 121.0 |
| 2026-02-25T07:30 | -0.32430 | -6.99428 | 9.921 | 120.4 |
| 2026-02-25T07:40 | -0.33811 | -6.97065 | 9.847 | 120.1 |
| 2026-02-25T07:50 | -0.35199 | -6.94664 | 9.980 | 119.9 |
| 2026-02-25T08:00 | -0.36596 | -6.92259 | 10.011 | 120.0 |
| 2026-02-25T08:10 | -0.37981 | -6.89858 | 9.972 | 119.8 |
| 2026-02-25T08:20 | -0.39371 | -6.87477 | 9.921 | 120.1 |
| 2026-02-25T08:30 | -0.40762 | -6.85086 | 9.956 | 120.0 |
| 2026-02-25T08:40 | -0.42038 | -6.82880 | 9.168 | 119.9 |
| 2026-02-25T08:50 | -0.43446 | -6.80456 | 10.087 | 120.0 |
| 2026-02-25T09:00 | -0.44843 | -6.78067 | 9.958 | 120.1 |
| 2026-02-25T09:10 | -0.46240 | -6.75650 | 10.046 | 119.9 |
| 2026-02-25T09:20 | -0.47650 | -6.73225 | 10.094 | 120.0 |
| 2026-02-25T09:30 | -0.49047 | -6.70822 | 10.001 | 120.0 |
| 2026-02-25T09:40 | -0.50440 | -6.68421 | 9.989 | 120.0 |
| 2026-02-25T09:50 | -0.51824 | -6.66038 | 9.916 | 120.0 |
| 2026-02-25T10:00 | -0.53222 | -6.63632 | 10.013 | 120.0 |
| 2026-02-25T10:10 | -0.54639 | -6.61195 | 10.143 | 120.0 |
| 2026-02-25T10:20 | -0.56056 | -6.58756 | 10.152 | 120.0 |
| 2026-02-25T10:30 | -0.57480 | -6.56327 | 10.131 | 120.2 |
| 2026-02-25T10:40 | -0.58874 | -6.53917 | 10.017 | 119.9 |
| 2026-02-25T10:50 | -0.60273 | -6.51520 | 9.989 | 120.1 |
| 2026-02-25T11:00 | -0.61661 | -6.49123 | 9.964 | 119.9 |
| 2026-02-25T11:10 | -0.63059 | -6.46721 | 10.003 | 120.0 |
| 2026-02-25T11:20 | -0.64446 | -6.44314 | 9.996 | 119.8 |
| 2026-02-25T11:30 | -0.65843 | -6.41934 | 9.929 | 120.2 |
| 2026-02-25T11:40 | -0.67237 | -6.39526 | 10.012 | 119.9 |
| 2026-02-25T11:50 | -0.68622 | -6.37131 | 9.954 | 119.9 |
| 2026-02-25T12:00 | -0.70027 | -6.34719 | 10.046 | 120.1 |
| 2026-02-25T12:10 | -0.71415 | -6.32333 | 9.932 | 120.0 |
| 2026-02-25T12:20 | -0.72789 | -6.29962 | 9.860 | 119.9 |
| 2026-02-25T12:30 | -0.74174 | -6.27568 | 9.950 | 119.9 |
| 2026-02-25T12:40 | -0.75576 | -6.25174 | 9.983 | 120.2 |
| 2026-02-25T12:50 | -0.76977 | -6.22749 | 10.078 | 119.8 |
| 2026-02-25T13:00 | -0.78121 | -6.20796 | 8.142 | 120.2 |
| 2026-02-25T13:10 | -0.79035 | -6.19219 | 6.559 | 119.9 |
| 2026-02-25T13:20 | -0.80187 | -6.17227 | 8.280 | 119.9 |
| 2026-02-25T13:30 | -0.81333 | -6.15248 | 8.230 | 119.9 |
| 2026-02-25T13:40 | -0.82505 | -6.13224 | 8.414 | 119.9 |
| 2026-02-25T13:50 | -0.83873 | -6.10866 | 9.811 | 120.0 |
| 2026-02-25T14:00 | -0.85244 | -6.08510 | 9.807 | 120.0 |
| 2026-02-25T14:10 | -0.86616 | -6.06146 | 9.835 | 120.0 |
| 2026-02-25T14:20 | -0.87991 | -6.03780 | 9.848 | 120.0 |
| 2026-02-25T14:30 | -0.89358 | -6.01438 | 9.755 | 120.1 |
| 2026-02-25T14:40 | -0.90720 | -5.99086 | 9.781 | 119.9 |
| 2026-02-25T14:50 | -0.92084 | -5.96746 | 9.745 | 120.1 |
| 2026-02-25T15:00 | -0.93437 | -5.94414 | 9.701 | 120.0 |
| 2026-02-25T15:10 | -0.94806 | -5.92078 | 9.744 | 120.2 |
| 2026-02-25T15:20 | -0.96171 | -5.89724 | 9.790 | 120.0 |
| 2026-02-25T15:30 | -0.97535 | -5.87376 | 9.770 | 120.0 |
| 2026-02-25T15:40 | -0.98912 | -5.85011 | 9.845 | 120.0 |
| 2026-02-25T15:50 | -1.00293 | -5.82633 | 9.897 | 120.0 |
| 2026-02-25T16:00 | -1.01656 | -5.80292 | 9.745 | 120.0 |
| 2026-02-25T16:10 | -1.03024 | -5.77937 | 9.800 | 120.0 |
| 2026-02-25T16:20 | -1.04398 | -5.75577 | 9.826 | 120.1 |
| 2026-02-25T16:30 | -1.05783 | -5.73192 | 9.923 | 120.0 |
| 2026-02-25T16:40 | -1.07139 | -5.70850 | 9.739 | 119.9 |
| 2026-02-25T16:50 | -1.08524 | -5.68543 | 9.680 | 120.8 |
| 2026-02-25T17:00 | -1.09921 | -5.66247 | 9.668 | 121.2 |
| 2026-02-25T17:10 | -1.11322 | -5.63910 | 9.803 | 120.8 |
| 2026-02-25T17:20 | -1.12735 | -5.61582 | 9.796 | 121.1 |
| 2026-02-25T17:30 | -1.14156 | -5.59240 | 9.856 | 121.1 |
| 2026-02-25T17:40 | -1.15587 | -5.56862 | 9.984 | 120.9 |
| 2026-02-25T17:50 | -1.17071 | -5.54405 | 10.326 | 121.0 |
| 2026-02-25T18:00 | -1.18555 | -5.51936 | 10.362 | 120.8 |
| 2026-02-25T18:10 | -1.20060 | -5.49454 | 10.443 | 121.1 |
| 2026-02-25T18:20 | -1.21551 | -5.46986 | 10.375 | 121.0 |
| 2026-02-25T18:30 | -1.23046 | -5.44515 | 10.390 | 121.0 |
| 2026-02-25T18:40 | -1.24522 | -5.42066 | 10.286 | 120.9 |
| 2026-02-25T18:50 | -1.26011 | -5.39561 | 10.483 | 120.6 |
| 2026-02-25T19:00 | -1.27477 | -5.37033 | 10.515 | 120.0 |
| 2026-02-25T19:10 | -1.28973 | -5.34471 | 10.673 | 120.1 |
| 2026-02-25T19:20 | -1.30444 | -5.31862 | 10.775 | 119.3 |
| 2026-02-25T19:30 | -1.31910 | -5.29279 | 10.687 | 119.4 |
| 2026-02-25T19:40 | -1.33348 | -5.26761 | 10.432 | 119.6 |
| 2026-02-25T19:50 | -1.34771 | -5.24207 | 10.522 | 119.0 |
| 2026-02-25T20:00 | -1.36250 | -5.21666 | 10.577 | 120.0 |
| 2026-02-25T20:10 | -1.37668 | -5.19140 | 10.423 | 119.2 |
| 2026-02-25T20:20 | -1.39098 | -5.16631 | 10.388 | 119.5 |
| 2026-02-25T20:30 | -1.40534 | -5.14158 | 10.290 | 120.0 |
| 2026-02-25T20:40 | -1.41964 | -5.11687 | 10.271 | 119.9 |
| 2026-02-25T20:50 | -1.43378 | -5.09206 | 10.276 | 119.5 |
| 2026-02-25T21:00 | -1.44758 | -5.06719 | 10.231 | 118.9 |
| 2026-02-25T21:10 | -1.46144 | -5.04218 | 10.288 | 118.8 |
| 2026-02-25T21:20 | -1.47561 | -5.01737 | 10.280 | 119.6 |
| 2026-02-25T21:30 | -1.48745 | -4.99908 | 7.837 | 122.8 |
| 2026-02-25T21:40 | -1.48981 | -5.00045 | 0.980 | 210.4 |
| 2026-02-25T21:50 | -1.48950 | -5.00028 | 0.131 | 29.6 |
| 2026-02-25T22:00 | -1.48938 | -5.00000 | 0.107 | 66.2 |
| 2026-02-25T22:10 | -1.48928 | -4.99979 | 0.083 | 66.3 |
| 2026-02-25T22:20 | -1.48928 | -4.99979 | 0.001 | 76.0 |
| 2026-02-25T22:30 | -1.48929 | -4.99980 | 0.003 | 251.7 |
| 2026-02-25T22:40 | -1.48928 | -4.99980 | 0.001 | 314.8 |
| 2026-02-25T22:50 | -1.48928 | -4.99980 | 0.002 | 45.2 |
| 2026-02-25T23:00 | -1.48928 | -4.99979 | 0.002 | 134.8 |
| 2026-02-25T23:10 | -1.49131 | -4.99915 | 0.761 | 162.3 |
| 2026-02-25T23:20 | -1.50419 | -4.97720 | 9.157 | 120.2 |
| 2026-02-25T23:30 | -1.51846 | -4.95197 | 10.430 | 119.3 |
| 2026-02-25T23:40 | -1.53309 | -4.92679 | 10.474 | 120.0 |
| 2026-02-25T23:50 | -1.54767 | -4.90160 | 10.471 | 119.9 |
| 2026-02-26T00:00 | -1.56211 | -4.87636 | 10.461 | 119.6 |
| 2026-02-26T00:10 | -1.57674 | -4.85141 | 10.404 | 120.2 |
| 2026-02-26T00:20 | -1.59137 | -4.82646 | 10.406 | 120.2 |
| 2026-02-26T00:30 | -1.60569 | -4.80167 | 10.300 | 119.8 |
| 2026-02-26T00:40 | -1.61989 | -4.77715 | 10.189 | 119.9 |
| 2026-02-26T00:50 | -1.63394 | -4.75280 | 10.115 | 119.8 |
| 2026-02-26T01:00 | -1.64819 | -4.72815 | 10.244 | 119.9 |
| 2026-02-26T01:10 | -1.66251 | -4.70345 | 10.272 | 120.0 |
| 2026-02-26T01:20 | -1.67691 | -4.67872 | 10.293 | 120.1 |
| 2026-02-26T01:30 | -1.69108 | -4.65421 | 10.184 | 119.9 |
| 2026-02-26T01:40 | -1.70525 | -4.62995 | 10.105 | 120.1 |
| 2026-02-26T01:50 | -1.71938 | -4.60555 | 10.143 | 119.9 |
| 2026-02-26T02:00 | -1.73357 | -4.58104 | 10.190 | 119.9 |
| 2026-02-26T02:10 | -1.74797 | -4.55637 | 10.275 | 120.1 |
| 2026-02-26T02:20 | -1.76223 | -4.53163 | 10.272 | 119.8 |
| 2026-02-26T02:30 | -1.77657 | -4.50700 | 10.251 | 120.1 |
| 2026-02-26T02:40 | -1.79095 | -4.48232 | 10.276 | 120.1 |
| 2026-02-26T02:50 | -1.80532 | -4.45755 | 10.301 | 120.0 |
| 2026-02-26T03:00 | -1.81971 | -4.43279 | 10.304 | 120.0 |
| 2026-02-26T03:10 | -1.83413 | -4.40790 | 10.345 | 119.9 |
| 2026-02-26T03:20 | -1.84851 | -4.38309 | 10.317 | 119.9 |
| 2026-02-26T03:30 | -1.86313 | -4.35798 | 10.450 | 120.0 |
| 2026-02-26T03:40 | -1.87775 | -4.33296 | 10.422 | 120.2 |
| 2026-02-26T03:50 | -1.88308 | -4.30750 | 9.369 | 101.8 |
| 2026-02-26T04:00 | -1.89898 | -4.28371 | 10.288 | 123.6 |
| 2026-02-26T04:10 | -1.91540 | -4.25965 | 10.474 | 124.1 |
| 2026-02-26T04:20 | -1.93089 | -4.23512 | 10.433 | 122.1 |
| 2026-02-26T04:30 | -1.94649 | -4.21060 | 10.453 | 122.3 |
| 2026-02-26T04:40 | -1.96207 | -4.18606 | 10.451 | 122.2 |
| 2026-02-26T04:50 | -1.97766 | -4.16116 | 10.566 | 121.9 |
| 2026-02-26T05:00 | -1.99304 | -4.13663 | 10.411 | 121.9 |
| 2026-02-26T05:10 | -2.00833 | -4.11225 | 10.350 | 121.9 |
| 2026-02-26T05:20 | -2.02367 | -4.08805 | 10.303 | 122.2 |
| 2026-02-26T05:30 | -2.03904 | -4.06343 | 10.437 | 121.8 |
| 2026-02-26T05:40 | -2.05451 | -4.03884 | 10.448 | 122.0 |
| 2026-02-26T05:50 | -2.06947 | -4.01396 | 10.441 | 120.9 |
| 2026-02-26T06:00 | -2.08425 | -3.98876 | 10.508 | 120.3 |
| 2026-02-26T06:10 | -2.09889 | -3.96360 | 10.469 | 120.0 |
| 2026-02-26T06:20 | -2.11340 | -3.93860 | 10.397 | 120.0 |
| 2026-02-26T06:30 | -2.12789 | -3.91358 | 10.401 | 119.9 |
| 2026-02-26T06:40 | -2.14244 | -3.88856 | 10.409 | 120.0 |
| 2026-02-26T06:50 | -2.15684 | -3.86353 | 10.385 | 119.8 |
| 2026-02-26T07:00 | -2.17144 | -3.83837 | 10.461 | 120.0 |
| 2026-02-26T07:10 | -2.18613 | -3.81323 | 10.472 | 120.2 |
| 2026-02-26T07:20 | -2.20084 | -3.78807 | 10.483 | 120.2 |
| 2026-02-26T07:30 | -2.21564 | -3.76258 | 10.600 | 120.0 |
| 2026-02-26T07:40 | -2.23039 | -3.73711 | 10.584 | 119.9 |
| 2026-02-26T07:50 | -2.24462 | -3.71221 | 10.315 | 119.6 |
| 2026-02-26T08:00 | -2.25958 | -3.68669 | 10.640 | 120.2 |
| 2026-02-26T08:10 | -2.27408 | -3.66174 | 10.378 | 120.0 |
| 2026-02-26T08:20 | -2.28863 | -3.63679 | 10.386 | 120.1 |
| 2026-02-26T08:30 | -2.30302 | -3.61188 | 10.346 | 119.9 |
| 2026-02-26T08:40 | -2.31770 | -3.58659 | 10.515 | 120.0 |
| 2026-02-26T08:50 | -2.33245 | -3.56129 | 10.534 | 120.1 |
| 2026-02-26T09:00 | -2.34697 | -3.53624 | 10.412 | 119.9 |
| 2026-02-26T09:10 | -2.36140 | -3.51101 | 10.452 | 119.6 |
| 2026-02-26T09:20 | -2.37606 | -3.48612 | 10.385 | 120.3 |
| 2026-02-26T09:30 | -2.39070 | -3.46101 | 10.454 | 120.1 |
| 2026-02-26T09:40 | -2.40494 | -3.43641 | 10.222 | 119.9 |
| 2026-02-26T09:50 | -2.41942 | -3.41150 | 10.362 | 120.0 |
| 2026-02-26T10:00 | -2.43367 | -3.38673 | 10.276 | 119.8 |
| 2026-02-26T10:10 | -2.44807 | -3.36199 | 10.295 | 120.0 |
| 2026-02-26T10:20 | -2.46247 | -3.33704 | 10.358 | 119.8 |
| 2026-02-26T10:30 | -2.47685 | -3.31239 | 10.262 | 120.1 |
| 2026-02-26T10:40 | -2.49124 | -3.28761 | 10.304 | 120.0 |
| 2026-02-26T10:50 | -2.50556 | -3.26315 | 10.193 | 120.2 |
| 2026-02-26T11:00 | -2.51962 | -3.23880 | 10.108 | 119.8 |
| 2026-02-26T11:10 | -2.53377 | -3.21438 | 10.152 | 120.0 |
| 2026-02-26T11:20 | -2.54804 | -3.18969 | 10.253 | 119.9 |
| 2026-02-26T11:30 | -2.56246 | -3.16474 | 10.362 | 119.9 |
| 2026-02-26T11:40 | -2.57697 | -3.13982 | 10.368 | 120.1 |
| 2026-02-26T11:50 | -2.59159 | -3.11489 | 10.391 | 120.2 |
| 2026-02-26T12:00 | -2.60585 | -3.09015 | 10.271 | 119.8 |
| 2026-02-26T12:10 | -2.62003 | -3.06562 | 10.189 | 119.9 |
| 2026-02-26T12:20 | -2.63417 | -3.04124 | 10.132 | 120.0 |
| 2026-02-26T12:30 | -2.64816 | -3.01690 | 10.096 | 119.7 |
| 2026-02-26T12:40 | -2.66227 | -2.99275 | 10.055 | 120.2 |
| 2026-02-26T12:50 | -2.67624 | -2.96862 | 10.024 | 119.9 |
| 2026-02-26T13:00 | -2.69026 | -2.94462 | 9.994 | 120.2 |
| 2026-02-26T13:10 | -2.70435 | -2.92039 | 10.079 | 120.0 |
| 2026-02-26T13:20 | -2.71837 | -2.89604 | 10.100 | 119.8 |
| 2026-02-26T13:30 | -2.73258 | -2.87153 | 10.187 | 120.0 |
| 2026-02-26T13:40 | -2.74702 | -2.84678 | 10.305 | 120.1 |
| 2026-02-26T13:50 | -2.76154 | -2.82178 | 10.393 | 120.0 |
| 2026-02-26T14:00 | -2.77587 | -2.79712 | 10.253 | 120.0 |
| 2026-02-26T14:10 | -2.79001 | -2.77261 | 10.174 | 119.8 |
| 2026-02-26T14:20 | -2.80427 | -2.74819 | 10.167 | 120.2 |
| 2026-02-26T14:30 | -2.81845 | -2.72370 | 10.174 | 119.9 |
| 2026-02-26T14:40 | -2.83291 | -2.69877 | 10.361 | 120.0 |
| 2026-02-26T14:50 | -2.84715 | -2.67412 | 10.237 | 119.9 |
| 2026-02-26T15:00 | -2.86140 | -2.64957 | 10.206 | 120.0 |
| 2026-02-26T15:10 | -2.87509 | -2.62481 | 10.169 | 118.8 |
| 2026-02-26T15:20 | -2.88837 | -2.59975 | 10.200 | 117.8 |
| 2026-02-26T15:30 | -2.90175 | -2.57474 | 10.197 | 118.0 |
| 2026-02-26T15:40 | -2.91535 | -2.54942 | 10.336 | 118.1 |
| 2026-02-26T15:50 | -2.92878 | -2.52421 | 10.271 | 117.9 |
| 2026-02-26T16:00 | -2.94053 | -2.50759 | 7.310 | 125.1 |
| 2026-02-26T16:10 | -2.94280 | -2.50626 | 0.945 | 149.4 |
| 2026-02-26T16:20 | -2.94281 | -2.50626 | 0.003 | 186.4 |
| 2026-02-26T16:30 | -2.94283 | -2.50625 | 0.007 | 154.7 |
| 2026-02-26T16:40 | -2.94279 | -2.50624 | 0.014 | 24.1 |
| 2026-02-26T16:50 | -2.94280 | -2.50624 | 0.003 | 171.8 |
| 2026-02-26T17:00 | -2.94278 | -2.50623 | 0.005 | 30.4 |
| 2026-02-26T17:10 | -2.94437 | -2.50379 | 1.046 | 122.8 |
| 2026-02-26T17:20 | -2.95554 | -2.48555 | 7.688 | 121.4 |
| 2026-02-26T17:30 | -2.97068 | -2.46040 | 10.551 | 120.9 |
| 2026-02-26T17:40 | -2.98530 | -2.43536 | 10.423 | 120.2 |
| 2026-02-26T17:50 | -3.00003 | -2.41011 | 10.509 | 120.1 |
| 2026-02-26T18:00 | -3.01477 | -2.38476 | 10.543 | 120.0 |
| 2026-02-26T18:10 | -3.02944 | -2.35945 | 10.515 | 120.0 |
| 2026-02-26T18:20 | -3.04411 | -2.33415 | 10.513 | 120.0 |
| 2026-02-26T18:30 | -3.05878 | -2.30889 | 10.501 | 120.0 |
| 2026-02-26T18:40 | -3.07352 | -2.28333 | 10.607 | 119.8 |
| 2026-02-26T18:50 | -3.08844 | -2.25769 | 10.661 | 120.1 |
| 2026-02-26T19:00 | -3.10322 | -2.23221 | 10.589 | 120.0 |
| 2026-02-26T19:10 | -3.11779 | -2.20718 | 10.410 | 120.1 |
| 2026-02-26T19:20 | -3.13248 | -2.18191 | 10.507 | 120.0 |
| 2026-02-26T19:30 | -3.14746 | -2.15605 | 10.742 | 120.0 |
| 2026-02-26T19:40 | -3.16222 | -2.13040 | 10.637 | 119.8 |
| 2026-02-26T19:50 | -3.17702 | -2.10500 | 10.568 | 120.1 |
| 2026-02-26T20:00 | -3.19212 | -2.07916 | 10.755 | 120.2 |
| 2026-02-26T20:10 | -3.20707 | -2.05333 | 10.728 | 119.9 |
| 2026-02-26T20:20 | -3.22220 | -2.02746 | 10.774 | 120.2 |
| 2026-02-26T20:30 | -3.23726 | -2.00151 | 10.782 | 120.0 |
| 2026-02-26T20:40 | -3.25225 | -1.97578 | 10.704 | 120.1 |
| 2026-02-26T20:50 | -3.26732 | -1.94953 | 10.878 | 119.7 |
| 2026-02-26T21:00 | -3.28237 | -1.92349 | 10.809 | 119.9 |
| 2026-02-26T21:10 | -3.29702 | -1.89762 | 10.688 | 119.4 |
| 2026-02-26T21:20 | -3.31208 | -1.87177 | 10.752 | 120.1 |
| 2026-02-26T21:30 | -3.32680 | -1.84625 | 10.587 | 119.8 |
| 2026-02-26T21:40 | -3.34146 | -1.82099 | 10.495 | 120.0 |
| 2026-02-26T21:50 | -3.35632 | -1.79534 | 10.653 | 120.0 |
| 2026-02-26T22:00 | -3.37127 | -1.76964 | 10.687 | 120.1 |
| 2026-02-26T22:10 | -3.38599 | -1.74425 | 10.548 | 120.0 |
| 2026-02-26T22:20 | -3.40080 | -1.71865 | 10.627 | 119.9 |
| 2026-02-26T22:30 | -3.41552 | -1.69322 | 10.558 | 120.0 |
| 2026-02-26T22:40 | -3.43024 | -1.66789 | 10.529 | 120.0 |
| 2026-02-26T22:50 | -3.44484 | -1.64260 | 10.495 | 119.9 |
| 2026-02-26T23:00 | -3.45941 | -1.61746 | 10.442 | 120.0 |
| 2026-02-26T23:10 | -3.47407 | -1.59227 | 10.475 | 120.1 |
| 2026-02-26T23:20 | -3.48858 | -1.56721 | 10.407 | 119.9 |
| 2026-02-26T23:30 | -3.50311 | -1.54239 | 10.333 | 120.2 |
| 2026-02-26T23:40 | -3.51747 | -1.51757 | 10.304 | 119.9 |
| 2026-02-26T23:50 | -3.53176 | -1.49295 | 10.231 | 120.0 |
| 2026-02-27T00:00 | -3.54607 | -1.46836 | 10.225 | 120.1 |
| 2026-02-27T00:10 | -3.56035 | -1.44361 | 10.265 | 119.9 |
| 2026-02-27T00:20 | -3.57487 | -1.41872 | 10.354 | 120.1 |
| 2026-02-27T00:30 | -3.58939 | -1.39370 | 10.396 | 120.0 |
| 2026-02-27T00:40 | -3.60377 | -1.36875 | 10.348 | 119.8 |
| 2026-02-27T00:50 | -3.61832 | -1.34375 | 10.394 | 120.1 |
| 2026-02-27T01:00 | -3.63297 | -1.31838 | 10.526 | 119.9 |
| 2026-02-27T01:10 | -3.64761 | -1.29299 | 10.529 | 119.9 |
| 2026-02-27T01:20 | -3.66236 | -1.26758 | 10.558 | 120.0 |
| 2026-02-27T01:30 | -3.67683 | -1.24220 | 10.498 | 119.6 |
| 2026-02-27T01:40 | -3.69130 | -1.21712 | 10.403 | 119.9 |
| 2026-02-27T01:50 | -3.70580 | -1.19208 | 10.396 | 120.0 |
| 2026-02-27T02:00 | -3.72033 | -1.16680 | 10.477 | 119.8 |
| 2026-02-27T02:10 | -3.73477 | -1.14183 | 10.363 | 119.9 |
| 2026-02-27T02:20 | -3.74932 | -1.11661 | 10.459 | 119.9 |
| 2026-02-27T02:30 | -3.76423 | -1.09103 | 10.637 | 120.1 |
| 2026-02-27T02:40 | -3.77857 | -1.06594 | 10.382 | 119.7 |
| 2026-02-27T02:50 | -3.79329 | -1.04102 | 10.399 | 120.4 |
| 2026-02-27T03:00 | -3.80772 | -1.01610 | 10.346 | 120.0 |
| 2026-02-27T03:10 | -3.82212 | -0.99125 | 10.319 | 120.0 |
| 2026-02-27T03:20 | -3.83629 | -0.96664 | 10.203 | 119.8 |
| 2026-02-27T03:30 | -3.85059 | -0.94219 | 10.173 | 120.2 |
| 2026-02-27T03:40 | -3.86485 | -0.91751 | 10.242 | 119.9 |
| 2026-02-27T03:50 | -3.87933 | -0.89225 | 10.458 | 119.7 |
| 2026-02-27T04:00 | -3.89407 | -0.86695 | 10.519 | 120.1 |
| 2026-02-27T04:10 | -3.90880 | -0.84157 | 10.542 | 120.0 |
| 2026-02-27T04:20 | -3.92334 | -0.81663 | 10.370 | 120.1 |
| 2026-02-27T04:30 | -3.93790 | -0.79122 | 10.521 | 119.7 |
| 2026-02-27T04:40 | -3.95259 | -0.76600 | 10.484 | 120.1 |
| 2026-02-27T04:50 | -3.96701 | -0.74098 | 10.371 | 119.9 |
| 2026-02-27T05:00 | -3.98129 | -0.71586 | 10.382 | 119.5 |
| 2026-02-27T05:10 | -3.99578 | -0.69103 | 10.327 | 120.2 |
| 2026-02-27T05:20 | -4.01004 | -0.66665 | 10.143 | 120.2 |
| 2026-02-27T05:30 | -4.02432 | -0.64212 | 10.195 | 120.1 |
| 2026-02-27T05:40 | -4.03875 | -0.61719 | 10.349 | 120.0 |
| 2026-02-27T05:50 | -4.05330 | -0.59213 | 10.407 | 120.0 |
| 2026-02-27T06:00 | -4.06771 | -0.56725 | 10.327 | 120.0 |
| 2026-02-27T06:10 | -4.08216 | -0.54193 | 10.473 | 119.6 |
| 2026-02-27T06:20 | -4.09674 | -0.51699 | 10.375 | 120.2 |
| 2026-02-27T06:30 | -4.11121 | -0.49210 | 10.340 | 120.1 |
| 2026-02-27T06:40 | -4.12554 | -0.46736 | 10.268 | 120.0 |
| 2026-02-27T06:50 | -4.13969 | -0.44305 | 10.103 | 120.1 |
| 2026-02-27T07:00 | -4.15378 | -0.41857 | 10.143 | 119.8 |
| 2026-02-27T07:10 | -4.16778 | -0.39442 | 10.027 | 120.0 |
| 2026-02-27T07:20 | -4.18185 | -0.36992 | 10.148 | 119.8 |
| 2026-02-27T07:30 | -4.19628 | -0.34521 | 10.274 | 120.2 |
| 2026-02-27T07:40 | -4.21068 | -0.32040 | 10.302 | 120.0 |
| 2026-02-27T07:50 | -4.22506 | -0.29560 | 10.295 | 120.0 |
| 2026-02-27T08:00 | -4.23955 | -0.27046 | 10.422 | 119.8 |
| 2026-02-27T08:10 | -4.25077 | -0.25135 | 7.957 | 120.3 |
| 2026-02-27T08:20 | -4.26514 | -0.22645 | 10.323 | 119.9 |
| 2026-02-27T08:30 | -4.27978 | -0.20115 | 10.500 | 120.0 |
| 2026-02-27T08:40 | -4.29328 | -0.17816 | 9.572 | 120.3 |
| 2026-02-27T08:50 | -4.30209 | -0.16273 | 6.379 | 119.6 |
| 2026-02-27T09:00 | -4.31241 | -0.14500 | 7.368 | 120.1 |
| 2026-02-27T09:10 | -4.32248 | -0.12740 | 7.283 | 119.7 |
| 2026-02-27T09:20 | -4.33252 | -0.10968 | 7.312 | 119.5 |
| 2026-02-27T09:30 | -4.34236 | -0.09212 | 7.227 | 119.2 |
| 2026-02-27T09:40 | -4.35213 | -0.07409 | 7.365 | 118.4 |
| 2026-02-27T09:50 | -4.36186 | -0.05597 | 7.387 | 118.1 |
| 2026-02-27T10:00 | -4.37153 | -0.03800 | 7.328 | 118.2 |
| 2026-02-27T10:10 | -4.38104 | -0.01967 | 7.416 | 117.3 |
| 2026-02-27T10:20 | -4.39024 | -0.00164 | 7.268 | 117.0 |
| 2026-02-27T10:30 | -4.39458 | -0.00057 | 1.600 | 166.1 |
| 2026-02-27T10:40 | -4.39433 | -0.00002 | 0.220 | 65.9 |
| 2026-02-27T10:50 | -4.39432 | 0.00001 | 0.008 | 72.4 |
| 2026-02-27T11:00 | -4.39432 | 0.00000 | 0.003 | 310.5 |
| 2026-02-27T11:10 | -4.39431 | 0.00001 | 0.004 | 61.5 |
| 2026-02-27T11:20 | -4.39431 | -0.00000 | 0.005 | 258.7 |
| 2026-02-27T11:30 | -4.39431 | 0.00001 | 0.004 | 84.8 |
| 2026-02-27T11:40 | -4.39432 | 0.00001 | 0.002 | 153.3 |
| 2026-02-27T11:50 | -4.39430 | -0.00001 | 0.009 | 321.6 |
| 2026-02-27T12:00 | -4.39431 | 0.00001 | 0.007 | 129.0 |
| 2026-02-27T12:10 | -4.39431 | 0.00000 | 0.003 | 296.5 |
| 2026-02-27T12:20 | -4.39431 | 0.00001 | 0.004 | 116.5 |
| 2026-02-27T12:30 | -4.39432 | -0.00001 | 0.007 | 241.0 |
| 2026-02-27T12:40 | -4.39431 | 0.00001 | 0.006 | 60.4 |
| 2026-02-27T12:50 | -4.39432 | 0.00000 | 0.002 | 251.6 |
| 2026-02-27T13:00 | -4.39421 | -0.00021 | 0.085 | 296.3 |
| 2026-02-27T13:10 | -4.39236 | -0.00233 | 1.011 | 311.0 |
| 2026-02-27T13:20 | -4.39000 | -0.00416 | 1.069 | 322.1 |
| 2026-02-27T13:30 | -4.38729 | -0.00641 | 1.263 | 320.3 |
| 2026-02-27T13:40 | -4.38428 | -0.00881 | 1.382 | 321.3 |
| 2026-02-27T13:50 | -4.38172 | -0.01093 | 1.191 | 320.3 |
| 2026-02-27T14:00 | -4.37932 | -0.01324 | 1.194 | 316.0 |
| 2026-02-27T14:10 | -4.37643 | -0.01583 | 1.392 | 318.0 |
| 2026-02-27T14:20 | -4.37936 | -0.01900 | 1.549 | 227.4 |
| 2026-02-27T14:30 | -4.38783 | -0.00742 | 5.150 | 126.1 |
| 2026-02-27T14:40 | -4.39557 | 0.00542 | 5.383 | 121.0 |
| 2026-02-27T14:50 | -4.40342 | 0.01826 | 5.406 | 121.3 |
| 2026-02-27T15:00 | -4.41138 | 0.03136 | 5.500 | 121.2 |
| 2026-02-27T15:10 | -4.41922 | 0.04437 | 5.456 | 121.0 |
| 2026-02-27T15:20 | -4.42811 | 0.05906 | 6.163 | 121.1 |
| 2026-02-27T15:30 | -4.43706 | 0.07406 | 6.272 | 120.7 |
| 2026-02-27T15:40 | -4.44680 | 0.09065 | 6.907 | 120.3 |
| 2026-02-27T15:50 | -4.46076 | 0.11489 | 10.043 | 119.8 |
| 2026-02-27T16:00 | -4.47539 | 0.14009 | 10.465 | 120.0 |
| 2026-02-27T16:10 | -4.48970 | 0.16485 | 10.267 | 120.0 |
| 2026-02-27T16:20 | -4.50395 | 0.18956 | 10.239 | 119.9 |
| 2026-02-27T16:30 | -4.51816 | 0.21418 | 10.210 | 119.9 |
| 2026-02-27T16:40 | -4.53265 | 0.23908 | 10.342 | 120.1 |
| 2026-02-27T16:50 | -4.54720 | 0.26418 | 10.415 | 120.0 |
| 2026-02-27T17:00 | -4.56182 | 0.28931 | 10.439 | 120.1 |
| 2026-02-27T17:10 | -4.57648 | 0.31465 | 10.509 | 120.0 |
| 2026-02-27T17:20 | -4.59128 | 0.34008 | 10.561 | 120.1 |
| 2026-02-27T17:30 | -4.60611 | 0.36566 | 10.614 | 120.0 |
| 2026-02-27T17:40 | -4.62082 | 0.39113 | 10.557 | 119.9 |
| 2026-02-27T17:50 | -4.63547 | 0.41635 | 10.473 | 120.1 |
| 2026-02-27T18:00 | -4.65018 | 0.44185 | 10.568 | 119.9 |
| 2026-02-27T18:10 | -4.66506 | 0.46724 | 10.564 | 120.3 |
| 2026-02-27T18:20 | -4.67968 | 0.49263 | 10.515 | 119.8 |
| 2026-02-27T18:30 | -4.69417 | 0.51770 | 10.396 | 119.9 |
| 2026-02-27T18:40 | -4.70879 | 0.54288 | 10.452 | 120.1 |
| 2026-02-27T18:50 | -4.72344 | 0.56835 | 10.546 | 119.8 |
| 2026-02-27T19:00 | -4.73823 | 0.59363 | 10.512 | 120.3 |
| 2026-02-27T19:10 | -4.75282 | 0.61910 | 10.537 | 119.7 |
| 2026-02-27T19:20 | -4.76735 | 0.64437 | 10.460 | 119.8 |
| 2026-02-27T19:30 | -4.78218 | 0.66993 | 10.608 | 120.0 |
| 2026-02-27T19:40 | -4.79696 | 0.69557 | 10.622 | 119.9 |
| 2026-02-27T19:50 | -4.81170 | 0.72121 | 10.612 | 119.8 |
| 2026-02-27T20:00 | -4.82660 | 0.74714 | 10.738 | 119.8 |
| 2026-02-27T20:10 | -4.84170 | 0.77294 | 10.726 | 120.3 |
| 2026-02-27T20:20 | -4.85693 | 0.79890 | 10.804 | 120.3 |
| 2026-02-27T20:30 | -4.87197 | 0.82518 | 10.866 | 119.7 |
| 2026-02-27T20:40 | -4.88698 | 0.85108 | 10.741 | 120.0 |
| 2026-02-27T20:50 | -4.90190 | 0.87701 | 10.735 | 119.8 |
| 2026-02-27T21:00 | -4.91669 | 0.90244 | 10.558 | 120.1 |
| 2026-02-27T21:10 | -4.93164 | 0.92820 | 10.691 | 120.1 |
| 2026-02-27T21:20 | -4.94657 | 0.95398 | 10.691 | 120.0 |
| 2026-02-27T21:30 | -4.96128 | 0.98006 | 10.744 | 119.3 |
| 2026-02-27T21:40 | -4.97573 | 1.00612 | 10.692 | 118.9 |
| 2026-02-27T21:50 | -4.99018 | 1.03223 | 10.709 | 118.9 |
| 2026-02-27T22:00 | -5.00476 | 1.05833 | 10.729 | 119.1 |
| 2026-02-27T22:10 | -5.01935 | 1.08454 | 10.763 | 119.0 |
| 2026-02-27T22:20 | -5.03421 | 1.11105 | 10.904 | 119.2 |
| 2026-02-27T22:30 | -5.04903 | 1.13797 | 11.029 | 118.8 |
| 2026-02-27T22:40 | -5.06400 | 1.16488 | 11.051 | 119.0 |
| 2026-02-27T22:50 | -5.07887 | 1.19163 | 10.979 | 119.0 |
| 2026-02-27T23:00 | -5.09356 | 1.21861 | 11.023 | 118.5 |
| 2026-02-27T23:10 | -5.10835 | 1.24521 | 10.922 | 119.0 |
| 2026-02-27T23:20 | -5.12313 | 1.27177 | 10.904 | 119.0 |
| 2026-02-27T23:30 | -5.13786 | 1.29838 | 10.913 | 118.9 |
| 2026-02-27T23:40 | -5.15277 | 1.32532 | 11.048 | 118.9 |
| 2026-02-27T23:50 | -5.16784 | 1.35241 | 11.122 | 119.0 |
| 2026-02-28T00:00 | -5.18269 | 1.37974 | 11.159 | 118.5 |
| 2026-02-28T00:10 | -5.19826 | 1.40695 | 11.248 | 119.7 |
| 2026-02-28T00:20 | -5.21404 | 1.43408 | 11.261 | 120.1 |
| 2026-02-28T00:30 | -5.22957 | 1.46088 | 11.111 | 120.0 |
| 2026-02-28T00:40 | -5.24504 | 1.48775 | 11.121 | 119.9 |
| 2026-02-28T00:50 | -5.26053 | 1.51467 | 11.144 | 119.8 |
| 2026-02-28T01:00 | -5.27619 | 1.54155 | 11.160 | 120.2 |
| 2026-02-28T01:10 | -5.29173 | 1.56839 | 11.126 | 120.0 |
| 2026-02-28T01:20 | -5.30710 | 1.59516 | 11.073 | 119.8 |
| 2026-02-28T01:30 | -5.32225 | 1.62134 | 10.848 | 120.0 |
| 2026-02-28T01:40 | -5.33761 | 1.64769 | 10.940 | 120.2 |
| 2026-02-28T01:50 | -5.35286 | 1.67415 | 10.956 | 119.9 |
| 2026-02-28T02:00 | -5.36835 | 1.70070 | 11.023 | 120.2 |
| 2026-02-28T02:10 | -5.38377 | 1.72750 | 11.090 | 119.9 |
| 2026-02-28T02:20 | -5.39939 | 1.75440 | 11.159 | 120.1 |
| 2026-02-28T02:30 | -5.41506 | 1.78167 | 11.279 | 119.8 |
| 2026-02-28T02:40 | -5.43070 | 1.80883 | 11.241 | 119.9 |
| 2026-02-28T02:50 | -5.44640 | 1.83594 | 11.234 | 120.0 |
| 2026-02-28T03:00 | -5.46225 | 1.86325 | 11.326 | 120.1 |
| 2026-02-28T03:10 | -5.47794 | 1.89036 | 11.232 | 120.0 |
| 2026-02-28T03:20 | -5.49361 | 1.91752 | 11.245 | 119.9 |
| 2026-02-28T03:30 | -5.50923 | 1.94443 | 11.159 | 120.1 |
| 2026-02-28T03:40 | -5.52478 | 1.97152 | 11.201 | 119.8 |
| 2026-02-28T03:50 | -5.54046 | 1.99848 | 11.185 | 120.1 |
| 2026-02-28T04:00 | -5.55605 | 2.02541 | 11.159 | 120.0 |
| 2026-02-28T04:10 | -5.57167 | 2.05247 | 11.202 | 119.9 |
| 2026-02-28T04:20 | -5.58730 | 2.07945 | 11.181 | 120.0 |
| 2026-02-28T04:30 | -5.60280 | 2.10638 | 11.143 | 119.9 |
| 2026-02-28T04:40 | -5.61843 | 2.13336 | 11.180 | 120.0 |
| 2026-02-28T04:50 | -5.63410 | 2.16062 | 11.275 | 119.8 |
| 2026-02-28T05:00 | -5.64996 | 2.18794 | 11.325 | 120.1 |
| 2026-02-28T05:10 | -5.66574 | 2.21507 | 11.255 | 120.1 |
| 2026-02-28T05:20 | -5.68153 | 2.24230 | 11.284 | 120.1 |
| 2026-02-28T05:30 | -5.69706 | 2.26934 | 11.181 | 119.8 |
| 2026-02-28T05:40 | -5.71267 | 2.29623 | 11.149 | 120.1 |
| 2026-02-28T05:50 | -5.72821 | 2.32317 | 11.150 | 119.9 |
| 2026-02-28T06:00 | -5.74395 | 2.35035 | 11.260 | 120.0 |
| 2026-02-28T06:10 | -5.75961 | 2.37750 | 11.235 | 119.9 |
| 2026-02-28T06:20 | -5.77522 | 2.40444 | 11.164 | 120.1 |
| 2026-02-28T06:30 | -5.79081 | 2.43147 | 11.185 | 119.9 |
| 2026-02-28T06:40 | -5.80547 | 2.45905 | 11.196 | 118.0 |
| 2026-02-28T06:50 | -5.81708 | 2.48600 | 10.524 | 113.3 |
| 2026-02-28T07:00 | -5.82429 | 2.49374 | 3.791 | 133.0 |
| 2026-02-28T07:10 | -5.82465 | 2.49392 | 0.143 | 153.2 |
| 2026-02-28T07:20 | -5.82456 | 2.49407 | 0.062 | 60.2 |
| 2026-02-28T07:30 | -5.82457 | 2.49407 | 0.004 | 204.0 |
| 2026-02-28T07:40 | -5.82456 | 2.49408 | 0.006 | 47.3 |
| 2026-02-28T07:50 | -5.82455 | 2.49407 | 0.004 | 318.3 |
| 2026-02-28T08:00 | -5.82455 | 2.49407 | 0.001 | 225.0 |
| 2026-02-28T08:10 | -5.82456 | 2.49408 | 0.003 | 135.0 |
| 2026-02-28T08:20 | -5.82456 | 2.49407 | 0.004 | 241.0 |
| 2026-02-28T08:30 | -5.83547 | 2.51156 | 7.391 | 121.9 |
| 2026-02-28T08:40 | -5.85114 | 2.53884 | 11.276 | 119.8 |
| 2026-02-28T08:50 | -5.86681 | 2.56582 | 11.185 | 120.1 |
| 2026-02-28T09:00 | -5.88232 | 2.59277 | 11.145 | 119.9 |
| 2026-02-28T09:10 | -5.89771 | 2.61963 | 11.096 | 119.8 |
| 2026-02-28T09:20 | -5.91318 | 2.64603 | 10.967 | 120.3 |
| 2026-02-28T09:30 | -5.92832 | 2.67253 | 10.940 | 119.7 |
| 2026-02-28T09:40 | -5.94373 | 2.69909 | 11.005 | 120.1 |
| 2026-02-28T09:50 | -5.95899 | 2.72561 | 10.968 | 119.9 |
| 2026-02-28T10:00 | -5.97430 | 2.75219 | 10.993 | 119.9 |
| 2026-02-28T10:10 | -5.98958 | 2.77866 | 10.954 | 120.0 |
| 2026-02-28T10:20 | -6.00509 | 2.80540 | 11.079 | 120.1 |
| 2026-02-28T10:30 | -6.02051 | 2.83215 | 11.066 | 119.9 |
| 2026-02-28T10:40 | -6.03575 | 2.85879 | 10.997 | 119.8 |
| 2026-02-28T10:50 | -6.05104 | 2.88514 | 10.921 | 120.1 |
| 2026-02-28T11:00 | -6.06352 | 2.90699 | 9.015 | 119.7 |
| 2026-02-28T11:10 | -6.07174 | 2.92166 | 6.026 | 119.2 |
| 2026-02-28T11:20 | -6.07581 | 2.92560 | 2.030 | 135.9 |
| 2026-02-28T11:30 | -6.07549 | 2.92554 | 0.117 | 349.5 |
| 2026-02-28T11:40 | -6.07466 | 2.92494 | 0.367 | 323.9 |
| 2026-02-28T11:50 | -6.07368 | 2.92489 | 0.353 | 357.1 |
| 2026-02-28T12:00 | -6.07264 | 2.92459 | 0.386 | 343.6 |
| 2026-02-28T12:10 | -6.07182 | 2.92454 | 0.294 | 357.0 |
| 2026-02-28T12:20 | -6.07104 | 2.92420 | 0.304 | 336.4 |
| 2026-02-28T12:30 | -6.07032 | 2.92406 | 0.265 | 348.6 |
| 2026-02-28T12:40 | -6.06963 | 2.92380 | 0.261 | 339.4 |
| 2026-02-28T12:50 | -6.06906 | 2.92368 | 0.211 | 348.6 |
| 2026-02-28T13:00 | -6.06859 | 2.92358 | 0.171 | 347.2 |
| 2026-02-28T13:10 | -6.06882 | 2.92585 | 0.819 | 95.8 |
| 2026-02-28T13:20 | -6.07916 | 2.94326 | 7.256 | 120.7 |
| 2026-02-28T13:30 | -6.09241 | 2.96621 | 9.496 | 120.0 |
| 2026-02-28T13:40 | -6.10584 | 2.98946 | 9.623 | 120.0 |
| 2026-02-28T13:50 | -6.12146 | 3.01635 | 11.141 | 120.1 |
| 2026-02-28T14:00 | -6.13720 | 3.04379 | 11.335 | 119.8 |
| 2026-02-28T14:10 | -6.15301 | 3.07126 | 11.359 | 119.9 |
| 2026-02-28T14:20 | -6.16882 | 3.09852 | 11.289 | 120.1 |
| 2026-02-28T14:30 | -6.18449 | 3.12572 | 11.248 | 119.9 |
| 2026-02-28T14:40 | -6.20000 | 3.15259 | 11.116 | 120.0 |
| 2026-02-28T14:50 | -6.21556 | 3.17950 | 11.138 | 120.0 |
| 2026-02-28T15:00 | -6.23114 | 3.20650 | 11.167 | 120.0 |
| 2026-02-28T15:10 | -6.24670 | 3.23355 | 11.183 | 119.9 |
| 2026-02-28T15:20 | -6.26187 | 3.26112 | 11.274 | 118.8 |
| 2026-02-28T15:30 | -6.27738 | 3.28899 | 11.427 | 119.1 |
| 2026-02-28T15:40 | -6.29279 | 3.31669 | 11.354 | 119.1 |
| 2026-02-28T15:50 | -6.30797 | 3.34387 | 11.154 | 119.2 |
| 2026-02-28T16:00 | -6.32290 | 3.37077 | 11.018 | 119.0 |
| 2026-02-28T16:10 | -6.33779 | 3.39769 | 11.023 | 119.0 |
| 2026-02-28T16:20 | -6.35322 | 3.42458 | 11.106 | 119.8 |
| 2026-02-28T16:30 | -6.36860 | 3.45138 | 11.066 | 119.8 |
| 2026-02-28T16:40 | -6.38398 | 3.47807 | 11.034 | 120.0 |
| 2026-02-28T16:50 | -6.39933 | 3.50450 | 10.950 | 120.1 |
| 2026-02-28T17:00 | -6.41469 | 3.53112 | 11.007 | 120.0 |
| 2026-02-28T17:10 | -6.42994 | 3.55763 | 10.954 | 119.9 |
| 2026-02-28T17:20 | -6.44534 | 3.58426 | 11.018 | 120.0 |
| 2026-02-28T17:30 | -6.46059 | 3.61093 | 11.005 | 119.8 |
| 2026-02-28T17:40 | -6.47535 | 3.63744 | 10.866 | 119.1 |
| 2026-02-28T17:50 | -6.49001 | 3.66400 | 10.866 | 118.9 |
| 2026-02-28T18:00 | -6.50467 | 3.69030 | 10.783 | 119.1 |
| 2026-02-28T18:10 | -6.51899 | 3.71633 | 10.639 | 118.8 |
| 2026-02-28T18:20 | -6.53356 | 3.74240 | 10.695 | 119.2 |
| 2026-02-28T18:30 | -6.54807 | 3.76865 | 10.743 | 118.9 |
| 2026-02-28T18:40 | -6.56245 | 3.79472 | 10.660 | 118.9 |
| 2026-02-28T18:50 | -6.57689 | 3.82106 | 10.758 | 118.7 |
| 2026-02-28T19:00 | -6.59117 | 3.84674 | 10.521 | 119.1 |
| 2026-02-28T19:10 | -6.60565 | 3.87304 | 10.750 | 118.8 |
| 2026-02-28T19:20 | -6.62013 | 3.89906 | 10.663 | 119.1 |
| 2026-02-28T19:30 | -6.63471 | 3.92464 | 10.543 | 119.7 |
| 2026-02-28T19:40 | -6.64896 | 3.95039 | 10.535 | 119.0 |
| 2026-02-28T19:50 | -6.66341 | 3.97642 | 10.662 | 119.0 |
| 2026-02-28T20:00 | -6.67769 | 4.00228 | 10.577 | 118.9 |
| 2026-02-28T20:10 | -6.69195 | 4.02804 | 10.539 | 119.0 |
| 2026-02-28T20:20 | -6.70616 | 4.05367 | 10.495 | 119.0 |
| 2026-02-28T20:30 | -6.72044 | 4.07979 | 10.655 | 118.7 |
| 2026-02-28T20:40 | -6.73472 | 4.10536 | 10.486 | 119.2 |
| 2026-02-28T20:50 | -6.74895 | 4.13125 | 10.576 | 118.8 |
| 2026-02-28T21:00 | -6.76332 | 4.15729 | 10.648 | 118.9 |
| 2026-02-28T21:10 | -6.77779 | 4.18336 | 10.672 | 119.0 |
| 2026-02-28T21:20 | -6.79288 | 4.20958 | 10.830 | 119.9 |
| 2026-02-28T21:30 | -6.80790 | 4.23593 | 10.858 | 119.7 |
| 2026-02-28T21:40 | -6.82287 | 4.26193 | 10.739 | 120.0 |
| 2026-02-28T21:50 | -6.83794 | 4.28802 | 10.784 | 120.0 |
| 2026-02-28T22:00 | -6.85292 | 4.31404 | 10.748 | 119.9 |
| 2026-02-28T22:10 | -6.86766 | 4.33971 | 10.596 | 119.9 |
| 2026-02-28T22:20 | -6.88276 | 4.36571 | 10.763 | 120.2 |
| 2026-02-28T22:30 | -6.89749 | 4.39158 | 10.652 | 119.7 |
| 2026-02-28T22:40 | -6.91255 | 4.41761 | 10.765 | 120.1 |
| 2026-02-28T22:50 | -6.92767 | 4.44370 | 10.792 | 120.1 |
| 2026-02-28T23:00 | -6.94291 | 4.47009 | 10.908 | 120.0 |
| 2026-02-28T23:10 | -6.95802 | 4.49664 | 10.931 | 119.7 |
| 2026-02-28T23:20 | -6.97329 | 4.52312 | 10.942 | 120.0 |
| 2026-02-28T23:30 | -6.98830 | 4.54953 | 10.869 | 119.6 |
| 2026-02-28T23:40 | -7.00354 | 4.57623 | 11.002 | 119.7 |
| 2026-02-28T23:50 | -7.01856 | 4.60299 | 10.981 | 119.3 |
| 2026-03-01T00:00 | -7.03371 | 4.62976 | 11.008 | 119.5 |
| 2026-03-01T00:10 | -7.04918 | 4.65640 | 11.025 | 120.2 |
| 2026-03-01T00:20 | -7.06433 | 4.68290 | 10.920 | 119.8 |
| 2026-03-01T00:30 | -7.07945 | 4.70873 | 10.710 | 120.4 |
| 2026-03-01T00:40 | -7.09455 | 4.73520 | 10.906 | 119.7 |
| 2026-03-01T00:50 | -7.10976 | 4.76188 | 10.988 | 119.7 |
| 2026-03-01T01:00 | -7.12514 | 4.78864 | 11.041 | 119.9 |
| 2026-03-01T01:10 | -7.14038 | 4.81524 | 10.969 | 119.8 |
| 2026-03-01T01:20 | -7.15580 | 4.84204 | 11.062 | 120.0 |
| 2026-03-01T01:30 | -7.17150 | 4.86900 | 11.164 | 120.2 |
| 2026-03-01T01:40 | -7.18682 | 4.89603 | 11.113 | 119.6 |
| 2026-03-01T01:50 | -7.20253 | 4.92295 | 11.151 | 120.3 |
| 2026-03-01T02:00 | -7.21796 | 4.94993 | 11.122 | 119.8 |
| 2026-03-01T02:10 | -7.23351 | 4.97688 | 11.127 | 120.0 |
| 2026-03-01T02:20 | -7.24144 | 4.99969 | 8.638 | 109.2 |
| 2026-03-01T02:30 | -7.24329 | 5.00003 | 0.673 | 169.4 |
| 2026-03-01T02:40 | -7.24331 | 5.00002 | 0.008 | 214.3 |
| 2026-03-01T02:50 | -7.24332 | 4.99999 | 0.011 | 250.9 |
| 2026-03-01T03:00 | -7.24332 | 5.00001 | 0.007 | 77.5 |
| 2026-03-01T03:10 | -7.24331 | 5.00002 | 0.003 | 74.0 |
| 2026-03-01T03:20 | -7.24332 | 5.00002 | 0.002 | 116.6 |
| 2026-03-01T03:30 | -7.24332 | 5.00002 | 0.003 | 219.8 |
| 2026-03-01T03:40 | -7.24332 | 4.99999 | 0.009 | 284.1 |
| 2026-03-01T03:50 | -7.24331 | 5.00001 | 0.008 | 77.2 |
| 2026-03-01T04:00 | -7.24333 | 5.00003 | 0.008 | 126.4 |
| 2026-03-01T04:10 | -7.24331 | 5.00000 | 0.013 | 298.6 |
| 2026-03-01T04:20 | -7.24331 | 5.00000 | 0.001 | 0.0 |
| 2026-03-01T04:30 | -7.24331 | 5.00000 | 0.003 | 164.1 |
| 2026-03-01T04:40 | -7.24333 | 5.00004 | 0.015 | 116.0 |
| 2026-03-01T04:50 | -7.24331 | 5.00000 | 0.014 | 299.2 |
| 2026-03-01T05:00 | -7.24953 | 4.99958 | 2.230 | 183.9 |
| 2026-03-01T05:10 | -7.26305 | 5.02351 | 9.832 | 119.5 |
| 2026-03-01T05:20 | -7.27668 | 5.05111 | 11.011 | 116.3 |
| 2026-03-01T05:30 | -7.29122 | 5.07829 | 11.024 | 118.2 |
| 2026-03-01T05:40 | -7.30558 | 5.10567 | 11.058 | 117.7 |
| 2026-03-01T05:50 | -7.32020 | 5.13316 | 11.137 | 118.0 |
| 2026-03-01T06:00 | -7.33443 | 5.16034 | 10.974 | 117.7 |
| 2026-03-01T06:10 | -7.34922 | 5.18787 | 11.176 | 118.3 |
| 2026-03-01T06:20 | -7.36372 | 5.21532 | 11.103 | 117.9 |
| 2026-03-01T06:30 | -7.37882 | 5.24240 | 11.088 | 119.2 |
| 2026-03-01T06:40 | -7.39414 | 5.26887 | 10.939 | 120.1 |
| 2026-03-01T06:50 | -7.40951 | 5.29559 | 11.024 | 120.0 |
| 2026-03-01T07:00 | -7.42484 | 5.32242 | 11.051 | 119.8 |
| 2026-03-01T07:10 | -7.44023 | 5.34904 | 10.994 | 120.1 |
| 2026-03-01T07:20 | -7.45575 | 5.37584 | 11.074 | 120.1 |
| 2026-03-01T07:30 | -7.47124 | 5.40282 | 11.125 | 119.9 |
| 2026-03-01T07:40 | -7.48631 | 5.42999 | 11.112 | 119.1 |
| 2026-03-01T07:50 | -7.50126 | 5.45693 | 11.015 | 119.1 |
| 2026-03-01T08:00 | -7.51618 | 5.48403 | 11.061 | 118.9 |
| 2026-03-01T08:10 | -7.53117 | 5.51123 | 11.102 | 118.9 |
| 2026-03-01T08:20 | -7.54617 | 5.53824 | 11.047 | 119.1 |
| 2026-03-01T08:30 | -7.56124 | 5.56532 | 11.082 | 119.2 |
| 2026-03-01T08:40 | -7.57617 | 5.59262 | 11.121 | 118.7 |
| 2026-03-01T08:50 | -7.59116 | 5.61977 | 11.088 | 119.0 |
| 2026-03-01T09:00 | -7.60637 | 5.64738 | 11.267 | 118.9 |
| 2026-03-01T09:10 | -7.62142 | 5.67448 | 11.084 | 119.1 |
| 2026-03-01T09:20 | -7.63647 | 5.70171 | 11.121 | 119.0 |
| 2026-03-01T09:30 | -7.65125 | 5.72821 | 10.845 | 119.2 |
| 2026-03-01T09:40 | -7.66587 | 5.75485 | 10.863 | 118.8 |
| 2026-03-01T09:50 | -7.68028 | 5.78108 | 10.698 | 118.8 |
| 2026-03-01T10:00 | -7.69494 | 5.80751 | 10.802 | 119.1 |
| 2026-03-01T10:10 | -7.70952 | 5.83394 | 10.789 | 119.0 |
| 2026-03-01T10:20 | -7.72418 | 5.86033 | 10.790 | 119.1 |
| 2026-03-01T10:30 | -7.73877 | 5.88687 | 10.824 | 118.9 |
| 2026-03-01T10:40 | -7.75344 | 5.91334 | 10.818 | 119.0 |
| 2026-03-01T10:50 | -7.76825 | 5.94020 | 10.963 | 119.0 |
| 2026-03-01T11:00 | -7.78316 | 5.96710 | 10.989 | 119.1 |
| 2026-03-01T11:10 | -7.79802 | 5.99388 | 10.944 | 119.1 |
| 2026-03-01T11:20 | -7.81298 | 6.02084 | 11.020 | 119.1 |
| 2026-03-01T11:30 | -7.82771 | 6.04759 | 10.912 | 118.9 |
| 2026-03-01T11:40 | -7.84234 | 6.07420 | 10.853 | 118.9 |
| 2026-03-01T11:50 | -7.85711 | 6.10084 | 10.885 | 119.1 |
| 2026-03-01T12:00 | -7.87171 | 6.12723 | 10.776 | 119.0 |
| 2026-03-01T12:10 | -7.88613 | 6.15340 | 10.676 | 118.9 |
| 2026-03-01T12:20 | -7.90063 | 6.17981 | 10.766 | 118.8 |
| 2026-03-01T12:30 | -7.91521 | 6.20579 | 10.643 | 119.4 |
| 2026-03-01T12:40 | -7.92959 | 6.23199 | 10.679 | 118.8 |
| 2026-03-01T12:50 | -7.94398 | 6.25810 | 10.650 | 119.0 |
| 2026-03-01T13:00 | -7.95858 | 6.28450 | 10.778 | 119.0 |
| 2026-03-01T13:10 | -7.97317 | 6.31074 | 10.728 | 119.2 |
| 2026-03-01T13:20 | -7.98732 | 6.33654 | 10.510 | 118.8 |
| 2026-03-01T13:30 | -8.00144 | 6.36219 | 10.461 | 118.9 |
| 2026-03-01T13:40 | -8.01571 | 6.38796 | 10.524 | 119.0 |
| 2026-03-01T13:50 | -8.02988 | 6.41380 | 10.527 | 118.8 |
| 2026-03-01T14:00 | -8.04423 | 6.43956 | 10.532 | 119.2 |
| 2026-03-01T14:10 | -8.05837 | 6.46507 | 10.418 | 119.1 |
| 2026-03-01T14:20 | -8.07279 | 6.49015 | 10.334 | 120.0 |
| 2026-03-01T14:30 | -8.08729 | 6.51539 | 10.398 | 120.0 |
| 2026-03-01T14:40 | -8.10189 | 6.54070 | 10.439 | 120.1 |
| 2026-03-01T14:50 | -8.11648 | 6.56608 | 10.455 | 120.0 |
| 2026-03-01T15:00 | -8.13097 | 6.59133 | 10.398 | 120.0 |
| 2026-03-01T15:10 | -8.14530 | 6.61618 | 10.246 | 120.0 |
| 2026-03-01T15:20 | -8.15983 | 6.64147 | 10.416 | 120.0 |
| 2026-03-01T15:30 | -8.17429 | 6.66637 | 10.286 | 120.2 |
| 2026-03-01T15:40 | -8.18878 | 6.69153 | 10.369 | 120.0 |
| 2026-03-01T15:50 | -8.20315 | 6.71718 | 10.497 | 119.3 |
| 2026-03-01T16:00 | -8.21701 | 6.74240 | 10.280 | 118.9 |
| 2026-03-01T16:10 | -8.23109 | 6.76788 | 10.393 | 119.0 |
| 2026-03-01T16:20 | -8.24517 | 6.79337 | 10.397 | 119.0 |
| 2026-03-01T16:30 | -8.25937 | 6.81886 | 10.421 | 119.2 |
| 2026-03-01T16:40 | -8.27330 | 6.84449 | 10.415 | 118.6 |
| 2026-03-01T16:50 | -8.28742 | 6.86999 | 10.406 | 119.1 |
| 2026-03-01T17:00 | -8.30140 | 6.89539 | 10.354 | 118.9 |
| 2026-03-01T17:10 | -8.31523 | 6.92041 | 10.205 | 119.0 |
| 2026-03-01T17:20 | -8.32920 | 6.94557 | 10.273 | 119.1 |
| 2026-03-01T17:30 | -8.34317 | 6.97090 | 10.330 | 119.0 |
| 2026-03-01T17:40 | -8.35716 | 6.99658 | 10.437 | 118.7 |
| 2026-03-01T17:50 | -8.37126 | 7.02206 | 10.397 | 119.1 |
| 2026-03-01T18:00 | -8.38550 | 7.04760 | 10.438 | 119.2 |
| 2026-03-01T18:10 | -8.39959 | 7.07312 | 10.407 | 119.0 |
| 2026-03-01T18:20 | -8.41354 | 7.09860 | 10.368 | 118.8 |
| 2026-03-01T18:30 | -8.42759 | 7.12411 | 10.397 | 118.9 |
| 2026-03-01T18:40 | -8.44149 | 7.14950 | 10.330 | 118.8 |
| 2026-03-01T18:50 | -8.45537 | 7.17458 | 10.232 | 119.1 |
| 2026-03-01T19:00 | -8.46913 | 7.20013 | 10.357 | 118.4 |
| 2026-03-01T19:10 | -8.48316 | 7.22554 | 10.361 | 119.0 |
| 2026-03-01T19:20 | -8.49745 | 7.25123 | 10.491 | 119.2 |
| 2026-03-01T19:30 | -8.51137 | 7.27680 | 10.391 | 118.7 |
| 2026-03-01T19:40 | -8.52526 | 7.30198 | 10.265 | 119.0 |
| 2026-03-01T19:50 | -8.53905 | 7.32794 | 10.489 | 118.1 |
| 2026-03-01T20:00 | -8.55343 | 7.35399 | 10.619 | 119.0 |
| 2026-03-01T20:10 | -8.56762 | 7.38014 | 10.615 | 118.6 |
| 2026-03-01T20:20 | -8.58215 | 7.40633 | 10.690 | 119.1 |
| 2026-03-01T20:30 | -8.59645 | 7.43244 | 10.620 | 118.8 |
| 2026-03-01T20:40 | -8.61015 | 7.45858 | 10.529 | 117.8 |
| 2026-03-01T20:50 | -8.62278 | 7.48335 | 9.922 | 117.1 |
| 2026-03-01T21:00 | -8.62746 | 7.48585 | 1.899 | 152.0 |
| 2026-03-01T21:10 | -8.62740 | 7.48570 | 0.058 | 290.0 |
| 2026-03-01T21:20 | -8.62741 | 7.48569 | 0.003 | 246.7 |
| 2026-03-01T21:30 | -8.62740 | 7.48571 | 0.005 | 63.3 |
| 2026-03-01T21:40 | -8.62742 | 7.48567 | 0.014 | 246.7 |
| 2026-03-01T21:50 | -8.62740 | 7.48571 | 0.013 | 69.0 |
| 2026-03-01T22:00 | -8.62742 | 7.48569 | 0.006 | 222.6 |
| 2026-03-01T22:10 | -8.62740 | 7.48570 | 0.008 | 21.7 |
| 2026-03-01T22:20 | -8.63030 | 7.49157 | 2.336 | 116.5 |
| 2026-03-01T22:30 | -8.64419 | 7.51687 | 10.296 | 118.9 |
| 2026-03-01T22:40 | -8.65828 | 7.54245 | 10.420 | 119.0 |
| 2026-03-01T22:50 | -8.67247 | 7.56822 | 10.497 | 119.0 |
| 2026-03-01T23:00 | -8.68634 | 7.59374 | 10.361 | 118.7 |
| 2026-03-01T23:10 | -8.70052 | 7.61940 | 10.461 | 119.0 |
| 2026-03-01T23:20 | -8.71495 | 7.64573 | 10.709 | 118.8 |
| 2026-03-01T23:30 | -8.72949 | 7.67203 | 10.720 | 119.1 |
| 2026-03-01T23:40 | -8.74419 | 7.69852 | 10.809 | 119.1 |
| 2026-03-01T23:50 | -8.75847 | 7.72458 | 10.599 | 118.8 |
| 2026-03-02T00:00 | -8.77270 | 7.75039 | 10.513 | 119.0 |
| 2026-03-02T00:10 | -8.78693 | 7.77615 | 10.500 | 119.1 |
| 2026-03-02T00:20 | -8.80105 | 7.80203 | 10.514 | 118.7 |
| 2026-03-02T00:30 | -8.81531 | 7.82779 | 10.501 | 119.1 |
| 2026-03-02T00:40 | -8.82961 | 7.85395 | 10.636 | 118.8 |
| 2026-03-02T00:50 | -8.84400 | 7.87989 | 10.579 | 119.2 |
| 2026-03-02T01:00 | -8.85854 | 7.90615 | 10.703 | 119.1 |
| 2026-03-02T01:10 | -8.87309 | 7.93258 | 10.762 | 119.0 |
| 2026-03-02T01:20 | -8.88765 | 7.95935 | 10.866 | 118.7 |
| 2026-03-02T01:30 | -8.90230 | 7.98564 | 10.734 | 119.3 |
| 2026-03-02T01:40 | -8.91683 | 8.01227 | 10.816 | 118.8 |
| 2026-03-02T01:50 | -8.93160 | 8.03882 | 10.834 | 119.2 |
| 2026-03-02T02:00 | -8.94583 | 8.06507 | 10.648 | 118.6 |
| 2026-03-02T02:10 | -8.96024 | 8.09145 | 10.715 | 118.8 |
| 2026-03-02T02:20 | -8.97491 | 8.11783 | 10.766 | 119.2 |
| 2026-03-02T02:30 | -8.98924 | 8.14372 | 10.551 | 119.1 |
| 2026-03-02T02:40 | -9.00340 | 8.16964 | 10.528 | 118.8 |
| 2026-03-02T02:50 | -9.01736 | 8.19519 | 10.379 | 118.8 |
| 2026-03-02T03:00 | -9.03127 | 8.22095 | 10.437 | 118.5 |
| 2026-03-02T03:10 | -9.04554 | 8.24691 | 10.562 | 118.9 |
| 2026-03-02T03:20 | -9.05962 | 8.27249 | 10.409 | 119.0 |
| 2026-03-02T03:30 | -9.07384 | 8.29852 | 10.574 | 118.8 |
| 2026-03-02T03:40 | -9.08801 | 8.32476 | 10.631 | 118.5 |
| 2026-03-02T03:50 | -9.10227 | 8.35073 | 10.558 | 118.9 |
| 2026-03-02T04:00 | -9.11640 | 8.37686 | 10.588 | 118.5 |
| 2026-03-02T04:10 | -9.13075 | 8.40275 | 10.553 | 119.2 |
| 2026-03-02T04:20 | -9.14492 | 8.42871 | 10.541 | 118.8 |
| 2026-03-02T04:30 | -9.15913 | 8.45451 | 10.496 | 119.0 |
| 2026-03-02T04:40 | -9.17363 | 8.48051 | 10.611 | 119.3 |
| 2026-03-02T04:50 | -9.18771 | 8.50643 | 10.514 | 118.7 |
| 2026-03-02T05:00 | -9.20202 | 8.53254 | 10.611 | 118.9 |
| 2026-03-02T05:10 | -9.21652 | 8.55881 | 10.694 | 119.0 |
| 2026-03-02T05:20 | -9.23105 | 8.58527 | 10.757 | 119.0 |
| 2026-03-02T05:30 | -9.24551 | 8.61128 | 10.605 | 119.2 |
| 2026-03-02T05:40 | -9.25980 | 8.63728 | 10.572 | 119.0 |
| 2026-03-02T05:50 | -9.27392 | 8.66315 | 10.500 | 118.8 |
| 2026-03-02T06:00 | -9.28836 | 8.68916 | 10.600 | 119.2 |
| 2026-03-02T06:10 | -9.30267 | 8.71532 | 10.626 | 118.8 |
| 2026-03-02T06:20 | -9.31729 | 8.74176 | 10.764 | 119.1 |
| 2026-03-02T06:30 | -9.33151 | 8.76786 | 10.591 | 118.8 |
| 2026-03-02T06:40 | -9.34620 | 8.79409 | 10.710 | 119.4 |
| 2026-03-02T06:50 | -9.36066 | 8.82060 | 10.759 | 118.8 |
| 2026-03-02T07:00 | -9.37525 | 8.84718 | 10.803 | 118.9 |
| 2026-03-02T07:10 | -9.38987 | 8.87365 | 10.771 | 119.1 |
| 2026-03-02T07:20 | -9.40443 | 8.90013 | 10.766 | 119.0 |
| 2026-03-02T07:30 | -9.41890 | 8.92657 | 10.734 | 118.9 |
| 2026-03-02T07:40 | -9.43341 | 8.95297 | 10.732 | 119.0 |
| 2026-03-02T07:50 | -9.44753 | 8.97949 | 10.699 | 118.2 |
| 2026-03-02T08:00 | -9.46167 | 9.00605 | 10.715 | 118.2 |
| 2026-03-02T08:10 | -9.47556 | 9.03249 | 10.638 | 117.9 |
| 2026-03-02T08:20 | -9.48936 | 9.05870 | 10.551 | 118.0 |
| 2026-03-02T08:30 | -9.50341 | 9.08519 | 10.674 | 118.1 |
| 2026-03-02T08:40 | -9.51769 | 9.11196 | 10.806 | 118.3 |
| 2026-03-02T08:50 | -9.53180 | 9.13897 | 10.850 | 117.8 |
| 2026-03-02T09:00 | -9.54604 | 9.16586 | 10.837 | 118.1 |
| 2026-03-02T09:10 | -9.56033 | 9.19298 | 10.913 | 118.0 |
| 2026-03-02T09:20 | -9.57506 | 9.21995 | 10.945 | 118.8 |
| 2026-03-02T09:30 | -9.58993 | 9.24723 | 11.061 | 118.8 |
| 2026-03-02T09:40 | -9.60518 | 9.27474 | 11.199 | 119.2 |
| 2026-03-02T09:50 | -9.61996 | 9.30171 | 10.952 | 118.9 |
| 2026-03-02T10:00 | -9.63479 | 9.32865 | 10.950 | 119.0 |
| 2026-03-02T10:10 | -9.64968 | 9.35572 | 10.999 | 119.0 |
| 2026-03-02T10:20 | -9.66453 | 9.38276 | 10.982 | 119.0 |
| 2026-03-02T10:30 | -9.67928 | 9.40954 | 10.886 | 119.0 |
| 2026-03-02T10:40 | -9.69389 | 9.43606 | 10.777 | 119.0 |
| 2026-03-02T10:50 | -9.70851 | 9.46264 | 10.801 | 119.0 |
| 2026-03-02T11:00 | -9.72311 | 9.48924 | 10.802 | 119.0 |
| 2026-03-02T11:10 | -9.73773 | 9.51583 | 10.801 | 119.0 |
| 2026-03-02T11:20 | -9.75245 | 9.54268 | 10.897 | 118.9 |
| 2026-03-02T11:30 | -9.76723 | 9.56971 | 10.967 | 118.9 |
| 2026-03-02T11:40 | -9.78208 | 9.59660 | 10.934 | 119.1 |
| 2026-03-02T11:50 | -9.79693 | 9.62363 | 10.976 | 119.0 |
| 2026-03-02T12:00 | -9.81183 | 9.65087 | 11.050 | 118.9 |
| 2026-03-02T12:10 | -9.82679 | 9.67801 | 11.028 | 119.1 |
| 2026-03-02T12:20 | -9.84178 | 9.70510 | 11.020 | 119.2 |
| 2026-03-02T12:30 | -9.85670 | 9.73249 | 11.098 | 118.8 |
| 2026-03-02T12:40 | -9.87162 | 9.75947 | 10.972 | 119.2 |
| 2026-03-02T12:50 | -9.88631 | 9.78621 | 10.856 | 119.0 |
| 2026-03-02T13:00 | -9.90104 | 9.81303 | 10.888 | 119.0 |
| 2026-03-02T13:10 | -9.91574 | 9.84000 | 10.929 | 118.8 |
| 2026-03-02T13:20 | -9.93041 | 9.86675 | 10.857 | 118.9 |
| 2026-03-02T13:30 | -9.94514 | 9.89360 | 10.897 | 119.0 |
| 2026-03-02T13:40 | -9.96007 | 9.92048 | 10.939 | 119.3 |
| 2026-03-02T13:50 | -9.97482 | 9.94746 | 10.938 | 118.9 |
| 2026-03-02T14:00 | -9.98962 | 9.97432 | 10.911 | 119.0 |
| 2026-03-02T14:10 | -9.99761 | 10.00004 | 9.567 | 107.4 |
| 2026-03-02T14:20 | -9.99976 | 9.99951 | 0.792 | 193.5 |
| 2026-03-02T14:30 | -9.99990 | 10.00000 | 0.179 | 106.6 |
| 2026-03-02T14:40 | -9.99994 | 10.00002 | 0.015 | 146.5 |
| 2026-03-02T14:50 | -9.99995 | 10.00004 | 0.008 | 129.7 |
| 2026-03-02T15:00 | -9.99994 | 10.00002 | 0.008 | 301.6 |
| 2026-03-02T15:10 | -9.99994 | 10.00001 | 0.004 | 264.8 |
| 2026-03-02T15:20 | -9.99995 | 10.00003 | 0.007 | 108.6 |
| 2026-03-02T15:30 | -9.99995 | 10.00001 | 0.005 | 274.4 |
| 2026-03-02T15:40 | -9.99994 | 10.00001 | 0.004 | 348.8 |
| 2026-03-02T15:50 | -9.99994 | 10.00003 | 0.006 | 109.6 |
| 2026-03-02T16:00 | -9.99994 | 10.00003 | 0.001 | 296.8 |
| 2026-03-02T16:10 | -9.99995 | 10.00001 | 0.007 | 261.4 |
| 2026-03-02T16:20 | -9.99995 | 10.00002 | 0.006 | 90.0 |
| 2026-03-02T16:30 | -9.99994 | 10.00001 | 0.004 | 286.8 |
| 2026-03-02T16:40 | -10.00101 | 10.00148 | 0.648 | 126.3 |
| 2026-03-02T16:50 | -10.00862 | 10.02678 | 9.386 | 106.9 |
| 2026-03-02T17:00 | -10.01726 | 10.05750 | 11.335 | 105.8 |
| 2026-03-02T17:10 | -10.02601 | 10.08806 | 11.291 | 106.1 |
| 2026-03-02T17:20 | -10.03462 | 10.11866 | 11.290 | 105.8 |
| 2026-03-02T17:30 | -10.04318 | 10.14947 | 11.361 | 105.7 |
| 2026-03-02T17:40 | -10.05154 | 10.18065 | 11.464 | 105.2 |
| 2026-03-02T17:50 | -10.05988 | 10.21224 | 11.605 | 104.9 |
Only the first 2000 rows were shown. To view the complete dataset, download it as tab-delimited text. You can still view the full matrix in your browser, but be aware that this may crash the browser due to the huge size.
